<?xml version="1.0" encoding="UTF-8" standalone="no" ?>
<gpx xmlns="http://www.topografix.com/GPX/1/1" xmlns:xsi="http://www.w3.org/2001/XMLSchema-instance" xsi:schemaLocation="http://www.topografix.com/GPX/1/1 http://www.topografix.com/GPX/1/1/gpx.xsd" version="1.1" creator="VisuGPX - https://www.visugpx.com">
  <metadata>
    <name>rando lundi 23/11</name>
    <desc><![CDATA[rando courte]]></desc>
  </metadata>
  <trk>
    <name><![CDATA[rando lundi 23/11_1]]></name>
    <trkseg>
      <trkpt lat="44.04506" lon="0.20882">
        <ele>-26</ele>
        <time>2015-11-16T12:27:11Z</time>
      </trkpt>
      <trkpt lat="44.04506" lon="0.20882">
        <ele>-26</ele>
        <time>2015-11-16T12:27:11Z</time>
      </trkpt>
      <trkpt lat="44.04512" lon="0.2089">
        <ele>-26</ele>
        <time>2015-11-16T12:28:22Z</time>
      </trkpt>
      <trkpt lat="44.04507" lon="0.20901">
        <ele>-27</ele>
        <time>2015-11-16T12:30:03Z</time>
      </trkpt>
      <trkpt lat="44.04503" lon="0.20912">
        <ele>-27</ele>
        <time>2015-11-16T12:30:22Z</time>
      </trkpt>
      <trkpt lat="44.04499" lon="0.20923">
        <ele>-27</ele>
        <time>2015-11-16T12:30:38Z</time>
      </trkpt>
      <trkpt lat="44.04501" lon="0.20936">
        <ele>-27</ele>
        <time>2015-11-16T12:30:47Z</time>
      </trkpt>
      <trkpt lat="44.04504" lon="0.20949">
        <ele>-27</ele>
        <time>2015-11-16T12:30:56Z</time>
      </trkpt>
      <trkpt lat="44.04506" lon="0.20961">
        <ele>-27</ele>
        <time>2015-11-16T12:31:07Z</time>
      </trkpt>
      <trkpt lat="44.04498" lon="0.20968">
        <ele>-27</ele>
        <time>2015-11-16T12:31:20Z</time>
      </trkpt>
      <trkpt lat="44.0449" lon="0.20975">
        <ele>-27</ele>
        <time>2015-11-16T12:31:32Z</time>
      </trkpt>
      <trkpt lat="44.04482" lon="0.20982">
        <ele>-27</ele>
        <time>2015-11-16T12:31:42Z</time>
      </trkpt>
      <trkpt lat="44.04474" lon="0.2099">
        <ele>-27</ele>
        <time>2015-11-16T12:31:52Z</time>
      </trkpt>
      <trkpt lat="44.04465" lon="0.20996">
        <ele>-26</ele>
        <time>2015-11-16T12:32:03Z</time>
      </trkpt>
      <trkpt lat="44.04458" lon="0.21005">
        <ele>-26</ele>
        <time>2015-11-16T12:32:18Z</time>
      </trkpt>
      <trkpt lat="44.0445" lon="0.21011">
        <ele>-26</ele>
        <time>2015-11-16T12:32:30Z</time>
      </trkpt>
      <trkpt lat="44.04441" lon="0.21019">
        <ele>-26</ele>
        <time>2015-11-16T12:32:40Z</time>
      </trkpt>
      <trkpt lat="44.04433" lon="0.21026">
        <ele>-26</ele>
        <time>2015-11-16T12:32:51Z</time>
      </trkpt>
      <trkpt lat="44.04425" lon="0.21034">
        <ele>-26</ele>
        <time>2015-11-16T12:33:00Z</time>
      </trkpt>
      <trkpt lat="44.04417" lon="0.21038">
        <ele>-26</ele>
        <time>2015-11-16T12:33:07Z</time>
      </trkpt>
      <trkpt lat="44.04408" lon="0.21043">
        <ele>-26</ele>
        <time>2015-11-16T12:33:15Z</time>
      </trkpt>
      <trkpt lat="44.04399" lon="0.21049">
        <ele>-26</ele>
        <time>2015-11-16T12:33:23Z</time>
      </trkpt>
      <trkpt lat="44.0439" lon="0.21055">
        <ele>-26</ele>
        <time>2015-11-16T12:33:32Z</time>
      </trkpt>
      <trkpt lat="44.04381" lon="0.21059">
        <ele>-26</ele>
        <time>2015-11-16T12:33:40Z</time>
      </trkpt>
      <trkpt lat="44.04373" lon="0.21064">
        <ele>-26</ele>
        <time>2015-11-16T12:33:47Z</time>
      </trkpt>
      <trkpt lat="44.04364" lon="0.2107">
        <ele>-22</ele>
        <time>2015-11-16T12:33:55Z</time>
      </trkpt>
      <trkpt lat="44.04355" lon="0.21076">
        <ele>-22</ele>
        <time>2015-11-16T12:34:03Z</time>
      </trkpt>
      <trkpt lat="44.04347" lon="0.21083">
        <ele>-22</ele>
        <time>2015-11-16T12:34:12Z</time>
      </trkpt>
      <trkpt lat="44.04339" lon="0.21091">
        <ele>-22</ele>
        <time>2015-11-16T12:34:23Z</time>
      </trkpt>
      <trkpt lat="44.04335" lon="0.21102">
        <ele>-22</ele>
        <time>2015-11-16T12:34:34Z</time>
      </trkpt>
      <trkpt lat="44.04334" lon="0.21115">
        <ele>-22</ele>
        <time>2015-11-16T12:34:51Z</time>
      </trkpt>
      <trkpt lat="44.04335" lon="0.21128">
        <ele>-22</ele>
        <time>2015-11-16T12:35:04Z</time>
      </trkpt>
      <trkpt lat="44.04337" lon="0.21141">
        <ele>-22</ele>
        <time>2015-11-16T12:35:15Z</time>
      </trkpt>
      <trkpt lat="44.04338" lon="0.21154">
        <ele>-22</ele>
        <time>2015-11-16T12:35:25Z</time>
      </trkpt>
      <trkpt lat="44.0434" lon="0.21167">
        <ele>-22</ele>
        <time>2015-11-16T12:35:35Z</time>
      </trkpt>
      <trkpt lat="44.04343" lon="0.2118">
        <ele>-22</ele>
        <time>2015-11-16T12:35:45Z</time>
      </trkpt>
      <trkpt lat="44.04346" lon="0.21193">
        <ele>-22</ele>
        <time>2015-11-16T12:35:54Z</time>
      </trkpt>
      <trkpt lat="44.04349" lon="0.21206">
        <ele>-22</ele>
        <time>2015-11-16T12:36:04Z</time>
      </trkpt>
      <trkpt lat="44.04351" lon="0.21219">
        <ele>-22</ele>
        <time>2015-11-16T12:36:13Z</time>
      </trkpt>
      <trkpt lat="44.04354" lon="0.21232">
        <ele>-22</ele>
        <time>2015-11-16T12:36:21Z</time>
      </trkpt>
      <trkpt lat="44.04356" lon="0.21246">
        <ele>-22</ele>
        <time>2015-11-16T12:36:29Z</time>
      </trkpt>
      <trkpt lat="44.04357" lon="0.21259">
        <ele>-22</ele>
        <time>2015-11-16T12:36:37Z</time>
      </trkpt>
      <trkpt lat="44.04359" lon="0.21271">
        <ele>-22</ele>
        <time>2015-11-16T12:36:44Z</time>
      </trkpt>
      <trkpt lat="44.0436" lon="0.21284">
        <ele>-22</ele>
        <time>2015-11-16T12:36:53Z</time>
      </trkpt>
      <trkpt lat="44.04361" lon="0.21298">
        <ele>-22</ele>
        <time>2015-11-16T12:37:02Z</time>
      </trkpt>
      <trkpt lat="44.04364" lon="0.2131">
        <ele>-22</ele>
        <time>2015-11-16T12:37:11Z</time>
      </trkpt>
      <trkpt lat="44.04366" lon="0.21324">
        <ele>-21</ele>
        <time>2015-11-16T12:37:21Z</time>
      </trkpt>
      <trkpt lat="44.04368" lon="0.21336">
        <ele>-21</ele>
        <time>2015-11-16T12:37:30Z</time>
      </trkpt>
      <trkpt lat="44.0437" lon="0.21349">
        <ele>-21</ele>
        <time>2015-11-16T12:37:40Z</time>
      </trkpt>
      <trkpt lat="44.04372" lon="0.21362">
        <ele>-21</ele>
        <time>2015-11-16T12:37:47Z</time>
      </trkpt>
      <trkpt lat="44.04374" lon="0.21375">
        <ele>-21</ele>
        <time>2015-11-16T12:37:55Z</time>
      </trkpt>
      <trkpt lat="44.04376" lon="0.21388">
        <ele>-21</ele>
        <time>2015-11-16T12:38:03Z</time>
      </trkpt>
      <trkpt lat="44.04378" lon="0.21402">
        <ele>-21</ele>
        <time>2015-11-16T12:38:11Z</time>
      </trkpt>
      <trkpt lat="44.0438" lon="0.21415">
        <ele>-21</ele>
        <time>2015-11-16T12:38:18Z</time>
      </trkpt>
      <trkpt lat="44.04383" lon="0.21427">
        <ele>-21</ele>
        <time>2015-11-16T12:38:26Z</time>
      </trkpt>
      <trkpt lat="44.04385" lon="0.21439">
        <ele>-21</ele>
        <time>2015-11-16T12:38:34Z</time>
      </trkpt>
      <trkpt lat="44.04387" lon="0.21453">
        <ele>-21</ele>
        <time>2015-11-16T12:38:42Z</time>
      </trkpt>
      <trkpt lat="44.0439" lon="0.21466">
        <ele>-21</ele>
        <time>2015-11-16T12:38:50Z</time>
      </trkpt>
      <trkpt lat="44.04393" lon="0.21479">
        <ele>-21</ele>
        <time>2015-11-16T12:38:59Z</time>
      </trkpt>
      <trkpt lat="44.04395" lon="0.21491">
        <ele>-21</ele>
        <time>2015-11-16T12:39:06Z</time>
      </trkpt>
      <trkpt lat="44.04399" lon="0.21504">
        <ele>-21</ele>
        <time>2015-11-16T12:39:13Z</time>
      </trkpt>
      <trkpt lat="44.04402" lon="0.21517">
        <ele>-21</ele>
        <time>2015-11-16T12:39:21Z</time>
      </trkpt>
      <trkpt lat="44.04406" lon="0.21529">
        <ele>-21</ele>
        <time>2015-11-16T12:39:28Z</time>
      </trkpt>
      <trkpt lat="44.04409" lon="0.21541">
        <ele>-21</ele>
        <time>2015-11-16T12:39:37Z</time>
      </trkpt>
      <trkpt lat="44.04411" lon="0.21555">
        <ele>-21</ele>
        <time>2015-11-16T12:39:46Z</time>
      </trkpt>
      <trkpt lat="44.04413" lon="0.21567">
        <ele>-21</ele>
        <time>2015-11-16T12:39:55Z</time>
      </trkpt>
      <trkpt lat="44.04416" lon="0.21579">
        <ele>-21</ele>
        <time>2015-11-16T12:40:02Z</time>
      </trkpt>
      <trkpt lat="44.04419" lon="0.21592">
        <ele>-21</ele>
        <time>2015-11-16T12:40:09Z</time>
      </trkpt>
      <trkpt lat="44.04422" lon="0.21606">
        <ele>-21</ele>
        <time>2015-11-16T12:40:17Z</time>
      </trkpt>
      <trkpt lat="44.04424" lon="0.21619">
        <ele>-21</ele>
        <time>2015-11-16T12:40:25Z</time>
      </trkpt>
      <trkpt lat="44.04425" lon="0.21632">
        <ele>-21</ele>
        <time>2015-11-16T12:40:32Z</time>
      </trkpt>
      <trkpt lat="44.04428" lon="0.21644">
        <ele>-21</ele>
        <time>2015-11-16T12:40:39Z</time>
      </trkpt>
      <trkpt lat="44.04431" lon="0.21658">
        <ele>-21</ele>
        <time>2015-11-16T12:40:48Z</time>
      </trkpt>
      <trkpt lat="44.04434" lon="0.2167">
        <ele>-21</ele>
        <time>2015-11-16T12:40:55Z</time>
      </trkpt>
      <trkpt lat="44.04437" lon="0.21683">
        <ele>-21</ele>
        <time>2015-11-16T12:41:02Z</time>
      </trkpt>
      <trkpt lat="44.0444" lon="0.21695">
        <ele>-21</ele>
        <time>2015-11-16T12:41:09Z</time>
      </trkpt>
      <trkpt lat="44.04443" lon="0.21708">
        <ele>-21</ele>
        <time>2015-11-16T12:41:16Z</time>
      </trkpt>
      <trkpt lat="44.04446" lon="0.21721">
        <ele>-21</ele>
        <time>2015-11-16T12:41:24Z</time>
      </trkpt>
      <trkpt lat="44.04449" lon="0.21734">
        <ele>-21</ele>
        <time>2015-11-16T12:41:32Z</time>
      </trkpt>
      <trkpt lat="44.04452" lon="0.21746">
        <ele>-21</ele>
        <time>2015-11-16T12:41:39Z</time>
      </trkpt>
      <trkpt lat="44.04455" lon="0.21759">
        <ele>-21</ele>
        <time>2015-11-16T12:41:47Z</time>
      </trkpt>
      <trkpt lat="44.04456" lon="0.21772">
        <ele>-21</ele>
        <time>2015-11-16T12:41:55Z</time>
      </trkpt>
      <trkpt lat="44.0446" lon="0.21785">
        <ele>-21</ele>
        <time>2015-11-16T12:42:03Z</time>
      </trkpt>
      <trkpt lat="44.04462" lon="0.21799">
        <ele>-21</ele>
        <time>2015-11-16T12:42:13Z</time>
      </trkpt>
      <trkpt lat="44.04464" lon="0.21812">
        <ele>-21</ele>
        <time>2015-11-16T12:42:22Z</time>
      </trkpt>
      <trkpt lat="44.04465" lon="0.21826">
        <ele>-21</ele>
        <time>2015-11-16T12:42:31Z</time>
      </trkpt>
      <trkpt lat="44.04467" lon="0.21839">
        <ele>-21</ele>
        <time>2015-11-16T12:42:39Z</time>
      </trkpt>
      <trkpt lat="44.0447" lon="0.21851">
        <ele>-21</ele>
        <time>2015-11-16T12:42:46Z</time>
      </trkpt>
      <trkpt lat="44.04472" lon="0.21864">
        <ele>-21</ele>
        <time>2015-11-16T12:42:54Z</time>
      </trkpt>
      <trkpt lat="44.04474" lon="0.21877">
        <ele>-21</ele>
        <time>2015-11-16T12:43:02Z</time>
      </trkpt>
      <trkpt lat="44.04477" lon="0.2189">
        <ele>-21</ele>
        <time>2015-11-16T12:43:10Z</time>
      </trkpt>
      <trkpt lat="44.0448" lon="0.21902">
        <ele>-21</ele>
        <time>2015-11-16T12:43:18Z</time>
      </trkpt>
      <trkpt lat="44.04482" lon="0.21915">
        <ele>-21</ele>
        <time>2015-11-16T12:43:25Z</time>
      </trkpt>
      <trkpt lat="44.04485" lon="0.21927">
        <ele>-21</ele>
        <time>2015-11-16T12:43:32Z</time>
      </trkpt>
      <trkpt lat="44.04488" lon="0.2194">
        <ele>-21</ele>
        <time>2015-11-16T12:43:39Z</time>
      </trkpt>
      <trkpt lat="44.0449" lon="0.21952">
        <ele>-21</ele>
        <time>2015-11-16T12:43:47Z</time>
      </trkpt>
      <trkpt lat="44.04492" lon="0.21966">
        <ele>-21</ele>
        <time>2015-11-16T12:43:55Z</time>
      </trkpt>
      <trkpt lat="44.04494" lon="0.21979">
        <ele>-21</ele>
        <time>2015-11-16T12:44:03Z</time>
      </trkpt>
      <trkpt lat="44.04496" lon="0.21991">
        <ele>-21</ele>
        <time>2015-11-16T12:44:10Z</time>
      </trkpt>
      <trkpt lat="44.04498" lon="0.22004">
        <ele>-21</ele>
        <time>2015-11-16T12:44:18Z</time>
      </trkpt>
      <trkpt lat="44.04499" lon="0.22017">
        <ele>-21</ele>
        <time>2015-11-16T12:44:27Z</time>
      </trkpt>
      <trkpt lat="44.04501" lon="0.2203">
        <ele>-21</ele>
        <time>2015-11-16T12:44:36Z</time>
      </trkpt>
      <trkpt lat="44.04503" lon="0.22044">
        <ele>-22</ele>
        <time>2015-11-16T12:44:44Z</time>
      </trkpt>
      <trkpt lat="44.04506" lon="0.22057">
        <ele>-22</ele>
        <time>2015-11-16T12:44:51Z</time>
      </trkpt>
      <trkpt lat="44.04508" lon="0.2207">
        <ele>-22</ele>
        <time>2015-11-16T12:44:59Z</time>
      </trkpt>
      <trkpt lat="44.0451" lon="0.22084">
        <ele>-22</ele>
        <time>2015-11-16T12:45:07Z</time>
      </trkpt>
      <trkpt lat="44.04512" lon="0.22096">
        <ele>-22</ele>
        <time>2015-11-16T12:45:17Z</time>
      </trkpt>
      <trkpt lat="44.04513" lon="0.2211">
        <ele>-22</ele>
        <time>2015-11-16T12:45:26Z</time>
      </trkpt>
      <trkpt lat="44.04513" lon="0.22123">
        <ele>-22</ele>
        <time>2015-11-16T12:45:35Z</time>
      </trkpt>
      <trkpt lat="44.04514" lon="0.22137">
        <ele>-22</ele>
        <time>2015-11-16T12:45:43Z</time>
      </trkpt>
      <trkpt lat="44.04513" lon="0.2215">
        <ele>-22</ele>
        <time>2015-11-16T12:45:52Z</time>
      </trkpt>
      <trkpt lat="44.04514" lon="0.22163">
        <ele>-22</ele>
        <time>2015-11-16T12:45:59Z</time>
      </trkpt>
      <trkpt lat="44.04514" lon="0.22176">
        <ele>-22</ele>
        <time>2015-11-16T12:46:06Z</time>
      </trkpt>
      <trkpt lat="44.04515" lon="0.2219">
        <ele>-22</ele>
        <time>2015-11-16T12:46:14Z</time>
      </trkpt>
      <trkpt lat="44.04516" lon="0.22204">
        <ele>-22</ele>
        <time>2015-11-16T12:46:21Z</time>
      </trkpt>
      <trkpt lat="44.04516" lon="0.22217">
        <ele>-22</ele>
        <time>2015-11-16T12:46:29Z</time>
      </trkpt>
      <trkpt lat="44.04516" lon="0.22231">
        <ele>-22</ele>
        <time>2015-11-16T12:46:37Z</time>
      </trkpt>
      <trkpt lat="44.04517" lon="0.22245">
        <ele>-22</ele>
        <time>2015-11-16T12:46:44Z</time>
      </trkpt>
      <trkpt lat="44.04516" lon="0.22259">
        <ele>-22</ele>
        <time>2015-11-16T12:46:52Z</time>
      </trkpt>
      <trkpt lat="44.04514" lon="0.22272">
        <ele>-22</ele>
        <time>2015-11-16T12:47:00Z</time>
      </trkpt>
      <trkpt lat="44.04513" lon="0.22285">
        <ele>-22</ele>
        <time>2015-11-16T12:47:09Z</time>
      </trkpt>
      <trkpt lat="44.04511" lon="0.22298">
        <ele>-22</ele>
        <time>2015-11-16T12:47:17Z</time>
      </trkpt>
      <trkpt lat="44.04511" lon="0.22311">
        <ele>-22</ele>
        <time>2015-11-16T12:47:24Z</time>
      </trkpt>
      <trkpt lat="44.04509" lon="0.22325">
        <ele>-22</ele>
        <time>2015-11-16T12:47:32Z</time>
      </trkpt>
      <trkpt lat="44.04508" lon="0.22338">
        <ele>-22</ele>
        <time>2015-11-16T12:47:39Z</time>
      </trkpt>
      <trkpt lat="44.04505" lon="0.22351">
        <ele>-22</ele>
        <time>2015-11-16T12:47:47Z</time>
      </trkpt>
      <trkpt lat="44.04504" lon="0.22365">
        <ele>-22</ele>
        <time>2015-11-16T12:47:55Z</time>
      </trkpt>
      <trkpt lat="44.04502" lon="0.22379">
        <ele>-22</ele>
        <time>2015-11-16T12:48:02Z</time>
      </trkpt>
      <trkpt lat="44.04502" lon="0.22393">
        <ele>-22</ele>
        <time>2015-11-16T12:48:10Z</time>
      </trkpt>
      <trkpt lat="44.04499" lon="0.22405">
        <ele>-22</ele>
        <time>2015-11-16T12:48:18Z</time>
      </trkpt>
      <trkpt lat="44.04496" lon="0.22417">
        <ele>-22</ele>
        <time>2015-11-16T12:48:26Z</time>
      </trkpt>
      <trkpt lat="44.04494" lon="0.2243">
        <ele>-22</ele>
        <time>2015-11-16T12:48:34Z</time>
      </trkpt>
      <trkpt lat="44.04491" lon="0.22443">
        <ele>-22</ele>
        <time>2015-11-16T12:48:44Z</time>
      </trkpt>
      <trkpt lat="44.04489" lon="0.22456">
        <ele>-22</ele>
        <time>2015-11-16T12:48:53Z</time>
      </trkpt>
      <trkpt lat="44.04489" lon="0.22468">
        <ele>-22</ele>
        <time>2015-11-16T12:49:01Z</time>
      </trkpt>
      <trkpt lat="44.04488" lon="0.22482">
        <ele>-22</ele>
        <time>2015-11-16T12:49:10Z</time>
      </trkpt>
      <trkpt lat="44.04486" lon="0.22495">
        <ele>-22</ele>
        <time>2015-11-16T12:49:18Z</time>
      </trkpt>
      <trkpt lat="44.04484" lon="0.22507">
        <ele>-22</ele>
        <time>2015-11-16T12:49:26Z</time>
      </trkpt>
      <trkpt lat="44.04484" lon="0.2252">
        <ele>-22</ele>
        <time>2015-11-16T12:49:34Z</time>
      </trkpt>
      <trkpt lat="44.04483" lon="0.22533">
        <ele>-22</ele>
        <time>2015-11-16T12:49:43Z</time>
      </trkpt>
      <trkpt lat="44.0448" lon="0.22547">
        <ele>-22</ele>
        <time>2015-11-16T12:49:52Z</time>
      </trkpt>
      <trkpt lat="44.04478" lon="0.22559">
        <ele>-22</ele>
        <time>2015-11-16T12:50:00Z</time>
      </trkpt>
      <trkpt lat="44.04477" lon="0.22573">
        <ele>-21</ele>
        <time>2015-11-16T12:50:09Z</time>
      </trkpt>
      <trkpt lat="44.04477" lon="0.22587">
        <ele>-21</ele>
        <time>2015-11-16T12:50:17Z</time>
      </trkpt>
      <trkpt lat="44.04478" lon="0.22599">
        <ele>-21</ele>
        <time>2015-11-16T12:50:25Z</time>
      </trkpt>
      <trkpt lat="44.04479" lon="0.22613">
        <ele>-21</ele>
        <time>2015-11-16T12:50:32Z</time>
      </trkpt>
      <trkpt lat="44.0448" lon="0.22625">
        <ele>-21</ele>
        <time>2015-11-16T12:50:38Z</time>
      </trkpt>
      <trkpt lat="44.0448" lon="0.22639">
        <ele>-21</ele>
        <time>2015-11-16T12:50:44Z</time>
      </trkpt>
      <trkpt lat="44.0448" lon="0.22651">
        <ele>-21</ele>
        <time>2015-11-16T12:50:51Z</time>
      </trkpt>
      <trkpt lat="44.0448" lon="0.22664">
        <ele>-21</ele>
        <time>2015-11-16T12:50:59Z</time>
      </trkpt>
      <trkpt lat="44.0448" lon="0.22678">
        <ele>-21</ele>
        <time>2015-11-16T12:51:07Z</time>
      </trkpt>
      <trkpt lat="44.0448" lon="0.2269">
        <ele>-21</ele>
        <time>2015-11-16T12:51:15Z</time>
      </trkpt>
      <trkpt lat="44.04479" lon="0.22703">
        <ele>-21</ele>
        <time>2015-11-16T12:51:23Z</time>
      </trkpt>
      <trkpt lat="44.04479" lon="0.22716">
        <ele>-21</ele>
        <time>2015-11-16T12:51:31Z</time>
      </trkpt>
      <trkpt lat="44.0448" lon="0.22729">
        <ele>-21</ele>
        <time>2015-11-16T12:51:39Z</time>
      </trkpt>
      <trkpt lat="44.04481" lon="0.22742">
        <ele>-21</ele>
        <time>2015-11-16T12:51:48Z</time>
      </trkpt>
      <trkpt lat="44.04483" lon="0.22756">
        <ele>-21</ele>
        <time>2015-11-16T12:51:57Z</time>
      </trkpt>
      <trkpt lat="44.04484" lon="0.22769">
        <ele>-21</ele>
        <time>2015-11-16T12:52:04Z</time>
      </trkpt>
      <trkpt lat="44.04486" lon="0.22783">
        <ele>-21</ele>
        <time>2015-11-16T12:52:12Z</time>
      </trkpt>
      <trkpt lat="44.04487" lon="0.22796">
        <ele>-21</ele>
        <time>2015-11-16T12:52:20Z</time>
      </trkpt>
      <trkpt lat="44.04486" lon="0.2281">
        <ele>-21</ele>
        <time>2015-11-16T12:52:29Z</time>
      </trkpt>
      <trkpt lat="44.04487" lon="0.22824">
        <ele>-21</ele>
        <time>2015-11-16T12:52:36Z</time>
      </trkpt>
      <trkpt lat="44.04488" lon="0.22837">
        <ele>-21</ele>
        <time>2015-11-16T12:52:44Z</time>
      </trkpt>
      <trkpt lat="44.0449" lon="0.22851">
        <ele>-21</ele>
        <time>2015-11-16T12:52:51Z</time>
      </trkpt>
      <trkpt lat="44.04491" lon="0.22863">
        <ele>-21</ele>
        <time>2015-11-16T12:52:58Z</time>
      </trkpt>
      <trkpt lat="44.04491" lon="0.22877">
        <ele>-21</ele>
        <time>2015-11-16T12:53:06Z</time>
      </trkpt>
      <trkpt lat="44.04491" lon="0.22891">
        <ele>-21</ele>
        <time>2015-11-16T12:53:14Z</time>
      </trkpt>
      <trkpt lat="44.04492" lon="0.22905">
        <ele>-21</ele>
        <time>2015-11-16T12:53:22Z</time>
      </trkpt>
      <trkpt lat="44.04492" lon="0.22918">
        <ele>-21</ele>
        <time>2015-11-16T12:53:30Z</time>
      </trkpt>
      <trkpt lat="44.04492" lon="0.22931">
        <ele>-21</ele>
        <time>2015-11-16T12:53:38Z</time>
      </trkpt>
      <trkpt lat="44.04493" lon="0.22945">
        <ele>-21</ele>
        <time>2015-11-16T12:53:47Z</time>
      </trkpt>
      <trkpt lat="44.04493" lon="0.22958">
        <ele>-21</ele>
        <time>2015-11-16T12:53:55Z</time>
      </trkpt>
      <trkpt lat="44.04494" lon="0.22971">
        <ele>-22</ele>
        <time>2015-11-16T12:54:02Z</time>
      </trkpt>
      <trkpt lat="44.04496" lon="0.22984">
        <ele>-22</ele>
        <time>2015-11-16T12:54:09Z</time>
      </trkpt>
      <trkpt lat="44.04498" lon="0.22997">
        <ele>-22</ele>
        <time>2015-11-16T12:54:16Z</time>
      </trkpt>
      <trkpt lat="44.04499" lon="0.2301">
        <ele>-22</ele>
        <time>2015-11-16T12:54:23Z</time>
      </trkpt>
      <trkpt lat="44.045" lon="0.23024">
        <ele>-22</ele>
        <time>2015-11-16T12:54:31Z</time>
      </trkpt>
      <trkpt lat="44.04502" lon="0.23038">
        <ele>-22</ele>
        <time>2015-11-16T12:54:39Z</time>
      </trkpt>
      <trkpt lat="44.04504" lon="0.23052">
        <ele>-22</ele>
        <time>2015-11-16T12:54:46Z</time>
      </trkpt>
      <trkpt lat="44.04506" lon="0.23065">
        <ele>-22</ele>
        <time>2015-11-16T12:54:53Z</time>
      </trkpt>
      <trkpt lat="44.04506" lon="0.23079">
        <ele>-22</ele>
        <time>2015-11-16T12:55:01Z</time>
      </trkpt>
      <trkpt lat="44.04504" lon="0.23091">
        <ele>-22</ele>
        <time>2015-11-16T12:55:18Z</time>
      </trkpt>
      <trkpt lat="44.04494" lon="0.23092">
        <ele>-22</ele>
        <time>2015-11-16T12:56:13Z</time>
      </trkpt>
      <trkpt lat="44.04486" lon="0.23095">
        <ele>-22</ele>
        <time>2015-11-16T12:56:31Z</time>
      </trkpt>
      <trkpt lat="44.04476" lon="0.23095">
        <ele>-22</ele>
        <time>2015-11-16T12:56:43Z</time>
      </trkpt>
      <trkpt lat="44.04466" lon="0.23095">
        <ele>-18</ele>
        <time>2015-11-16T12:56:52Z</time>
      </trkpt>
      <trkpt lat="44.04456" lon="0.23095">
        <ele>-18</ele>
        <time>2015-11-16T12:57:00Z</time>
      </trkpt>
      <trkpt lat="44.04446" lon="0.23095">
        <ele>-18</ele>
        <time>2015-11-16T12:57:08Z</time>
      </trkpt>
      <trkpt lat="44.04436" lon="0.23096">
        <ele>-18</ele>
        <time>2015-11-16T12:57:17Z</time>
      </trkpt>
      <trkpt lat="44.04426" lon="0.23095">
        <ele>-18</ele>
        <time>2015-11-16T12:57:26Z</time>
      </trkpt>
      <trkpt lat="44.04417" lon="0.23092">
        <ele>-18</ele>
        <time>2015-11-16T12:57:34Z</time>
      </trkpt>
      <trkpt lat="44.04408" lon="0.23087">
        <ele>-14</ele>
        <time>2015-11-16T12:57:45Z</time>
      </trkpt>
      <trkpt lat="44.04399" lon="0.23084">
        <ele>-14</ele>
        <time>2015-11-16T12:57:58Z</time>
      </trkpt>
      <trkpt lat="44.0439" lon="0.23081">
        <ele>-14</ele>
        <time>2015-11-16T12:58:07Z</time>
      </trkpt>
      <trkpt lat="44.04382" lon="0.23076">
        <ele>-14</ele>
        <time>2015-11-16T12:58:16Z</time>
      </trkpt>
      <trkpt lat="44.04374" lon="0.23068">
        <ele>-8</ele>
        <time>2015-11-16T12:58:26Z</time>
      </trkpt>
      <trkpt lat="44.04366" lon="0.23062">
        <ele>-8</ele>
        <time>2015-11-16T12:58:34Z</time>
      </trkpt>
      <trkpt lat="44.04358" lon="0.23054">
        <ele>-8</ele>
        <time>2015-11-16T12:58:42Z</time>
      </trkpt>
      <trkpt lat="44.04351" lon="0.23046">
        <ele>-8</ele>
        <time>2015-11-16T12:58:51Z</time>
      </trkpt>
      <trkpt lat="44.04343" lon="0.23039">
        <ele>-8</ele>
        <time>2015-11-16T12:59:00Z</time>
      </trkpt>
      <trkpt lat="44.04334" lon="0.23031">
        <ele>-8</ele>
        <time>2015-11-16T12:59:09Z</time>
      </trkpt>
      <trkpt lat="44.04328" lon="0.23022">
        <ele>-8</ele>
        <time>2015-11-16T12:59:17Z</time>
      </trkpt>
      <trkpt lat="44.04321" lon="0.23013">
        <ele>-8</ele>
        <time>2015-11-16T12:59:26Z</time>
      </trkpt>
      <trkpt lat="44.04315" lon="0.23002">
        <ele>-8</ele>
        <time>2015-11-16T12:59:35Z</time>
      </trkpt>
      <trkpt lat="44.04313" lon="0.22989">
        <ele>-8</ele>
        <time>2015-11-16T12:59:44Z</time>
      </trkpt>
      <trkpt lat="44.04311" lon="0.22976">
        <ele>-8</ele>
        <time>2015-11-16T12:59:52Z</time>
      </trkpt>
      <trkpt lat="44.04308" lon="0.22964">
        <ele>-3</ele>
        <time>2015-11-16T13:00:01Z</time>
      </trkpt>
      <trkpt lat="44.04306" lon="0.22951">
        <ele>-3</ele>
        <time>2015-11-16T13:00:10Z</time>
      </trkpt>
      <trkpt lat="44.04305" lon="0.22938">
        <ele>-3</ele>
        <time>2015-11-16T13:00:19Z</time>
      </trkpt>
      <trkpt lat="44.04305" lon="0.22924">
        <ele>-3</ele>
        <time>2015-11-16T13:00:28Z</time>
      </trkpt>
      <trkpt lat="44.04303" lon="0.22911">
        <ele>-3</ele>
        <time>2015-11-16T13:00:37Z</time>
      </trkpt>
      <trkpt lat="44.04303" lon="0.22898">
        <ele>-3</ele>
        <time>2015-11-16T13:00:46Z</time>
      </trkpt>
      <trkpt lat="44.04304" lon="0.22885">
        <ele>-3</ele>
        <time>2015-11-16T13:00:56Z</time>
      </trkpt>
      <trkpt lat="44.043" lon="0.22874">
        <ele>-3</ele>
        <time>2015-11-16T13:01:07Z</time>
      </trkpt>
      <trkpt lat="44.04297" lon="0.22861">
        <ele>-3</ele>
        <time>2015-11-16T13:01:26Z</time>
      </trkpt>
      <trkpt lat="44.04288" lon="0.22857">
        <ele>-3</ele>
        <time>2015-11-16T13:01:39Z</time>
      </trkpt>
      <trkpt lat="44.04279" lon="0.22855">
        <ele>-3</ele>
        <time>2015-11-16T13:01:49Z</time>
      </trkpt>
      <trkpt lat="44.0427" lon="0.22854">
        <ele>-3</ele>
        <time>2015-11-16T13:01:59Z</time>
      </trkpt>
      <trkpt lat="44.0426" lon="0.22853">
        <ele>-3</ele>
        <time>2015-11-16T13:02:08Z</time>
      </trkpt>
      <trkpt lat="44.04251" lon="0.22854">
        <ele>-3</ele>
        <time>2015-11-16T13:02:16Z</time>
      </trkpt>
      <trkpt lat="44.04241" lon="0.22855">
        <ele>-3</ele>
        <time>2015-11-16T13:02:23Z</time>
      </trkpt>
      <trkpt lat="44.04231" lon="0.22858">
        <ele>-3</ele>
        <time>2015-11-16T13:02:32Z</time>
      </trkpt>
      <trkpt lat="44.04221" lon="0.2286">
        <ele>-3</ele>
        <time>2015-11-16T13:02:40Z</time>
      </trkpt>
      <trkpt lat="44.04212" lon="0.22861">
        <ele>-3</ele>
        <time>2015-11-16T13:02:49Z</time>
      </trkpt>
      <trkpt lat="44.04203" lon="0.22865">
        <ele>3</ele>
        <time>2015-11-16T13:02:58Z</time>
      </trkpt>
      <trkpt lat="44.04194" lon="0.22867">
        <ele>3</ele>
        <time>2015-11-16T13:03:07Z</time>
      </trkpt>
      <trkpt lat="44.04184" lon="0.22868">
        <ele>3</ele>
        <time>2015-11-16T13:03:16Z</time>
      </trkpt>
      <trkpt lat="44.04174" lon="0.22869">
        <ele>3</ele>
        <time>2015-11-16T13:03:25Z</time>
      </trkpt>
      <trkpt lat="44.04164" lon="0.22872">
        <ele>3</ele>
        <time>2015-11-16T13:03:34Z</time>
      </trkpt>
      <trkpt lat="44.04155" lon="0.22875">
        <ele>3</ele>
        <time>2015-11-16T13:03:41Z</time>
      </trkpt>
      <trkpt lat="44.04145" lon="0.22874">
        <ele>3</ele>
        <time>2015-11-16T13:03:49Z</time>
      </trkpt>
      <trkpt lat="44.04136" lon="0.2287">
        <ele>3</ele>
        <time>2015-11-16T13:03:55Z</time>
      </trkpt>
      <trkpt lat="44.04128" lon="0.22864">
        <ele>3</ele>
        <time>2015-11-16T13:04:02Z</time>
      </trkpt>
      <trkpt lat="44.04119" lon="0.22861">
        <ele>7</ele>
        <time>2015-11-16T13:04:10Z</time>
      </trkpt>
      <trkpt lat="44.0411" lon="0.22854">
        <ele>7</ele>
        <time>2015-11-16T13:04:18Z</time>
      </trkpt>
      <trkpt lat="44.04103" lon="0.22847">
        <ele>7</ele>
        <time>2015-11-16T13:04:26Z</time>
      </trkpt>
      <trkpt lat="44.04096" lon="0.22838">
        <ele>7</ele>
        <time>2015-11-16T13:04:34Z</time>
      </trkpt>
      <trkpt lat="44.04089" lon="0.2283">
        <ele>7</ele>
        <time>2015-11-16T13:04:43Z</time>
      </trkpt>
      <trkpt lat="44.04081" lon="0.2282">
        <ele>11</ele>
        <time>2015-11-16T13:04:53Z</time>
      </trkpt>
      <trkpt lat="44.04074" lon="0.22812">
        <ele>11</ele>
        <time>2015-11-16T13:05:01Z</time>
      </trkpt>
      <trkpt lat="44.04068" lon="0.22802">
        <ele>11</ele>
        <time>2015-11-16T13:05:10Z</time>
      </trkpt>
      <trkpt lat="44.04061" lon="0.22793">
        <ele>11</ele>
        <time>2015-11-16T13:05:19Z</time>
      </trkpt>
      <trkpt lat="44.04054" lon="0.22783">
        <ele>11</ele>
        <time>2015-11-16T13:05:28Z</time>
      </trkpt>
      <trkpt lat="44.04046" lon="0.22775">
        <ele>11</ele>
        <time>2015-11-16T13:05:38Z</time>
      </trkpt>
      <trkpt lat="44.04038" lon="0.22769">
        <ele>11</ele>
        <time>2015-11-16T13:05:45Z</time>
      </trkpt>
      <trkpt lat="44.04029" lon="0.22763">
        <ele>11</ele>
        <time>2015-11-16T13:05:52Z</time>
      </trkpt>
      <trkpt lat="44.04022" lon="0.22756">
        <ele>11</ele>
        <time>2015-11-16T13:06:00Z</time>
      </trkpt>
      <trkpt lat="44.04013" lon="0.2275">
        <ele>11</ele>
        <time>2015-11-16T13:06:15Z</time>
      </trkpt>
      <trkpt lat="44.04005" lon="0.22746">
        <ele>16</ele>
        <time>2015-11-16T13:06:41Z</time>
      </trkpt>
      <trkpt lat="44.03998" lon="0.22736">
        <ele>16</ele>
        <time>2015-11-16T13:07:30Z</time>
      </trkpt>
      <trkpt lat="44.03992" lon="0.22726">
        <ele>16</ele>
        <time>2015-11-16T13:07:45Z</time>
      </trkpt>
      <trkpt lat="44.03985" lon="0.22716">
        <ele>16</ele>
        <time>2015-11-16T13:07:56Z</time>
      </trkpt>
      <trkpt lat="44.03978" lon="0.22707">
        <ele>16</ele>
        <time>2015-11-16T13:08:06Z</time>
      </trkpt>
      <trkpt lat="44.03971" lon="0.22699">
        <ele>16</ele>
        <time>2015-11-16T13:08:14Z</time>
      </trkpt>
      <trkpt lat="44.03964" lon="0.2269">
        <ele>16</ele>
        <time>2015-11-16T13:08:22Z</time>
      </trkpt>
      <trkpt lat="44.03957" lon="0.22682">
        <ele>16</ele>
        <time>2015-11-16T13:08:30Z</time>
      </trkpt>
      <trkpt lat="44.03952" lon="0.2267">
        <ele>16</ele>
        <time>2015-11-16T13:08:40Z</time>
      </trkpt>
      <trkpt lat="44.03945" lon="0.22661">
        <ele>16</ele>
        <time>2015-11-16T13:08:48Z</time>
      </trkpt>
      <trkpt lat="44.03939" lon="0.22651">
        <ele>16</ele>
        <time>2015-11-16T13:08:55Z</time>
      </trkpt>
      <trkpt lat="44.03931" lon="0.22642">
        <ele>16</ele>
        <time>2015-11-16T13:09:03Z</time>
      </trkpt>
      <trkpt lat="44.03924" lon="0.22634">
        <ele>16</ele>
        <time>2015-11-16T13:09:12Z</time>
      </trkpt>
      <trkpt lat="44.03915" lon="0.22628">
        <ele>16</ele>
        <time>2015-11-16T13:09:21Z</time>
      </trkpt>
      <trkpt lat="44.03906" lon="0.22624">
        <ele>16</ele>
        <time>2015-11-16T13:09:29Z</time>
      </trkpt>
      <trkpt lat="44.03897" lon="0.2262">
        <ele>16</ele>
        <time>2015-11-16T13:09:36Z</time>
      </trkpt>
      <trkpt lat="44.03888" lon="0.22615">
        <ele>16</ele>
        <time>2015-11-16T13:09:43Z</time>
      </trkpt>
      <trkpt lat="44.03879" lon="0.22609">
        <ele>16</ele>
        <time>2015-11-16T13:09:50Z</time>
      </trkpt>
      <trkpt lat="44.03871" lon="0.22602">
        <ele>16</ele>
        <time>2015-11-16T13:09:58Z</time>
      </trkpt>
      <trkpt lat="44.03864" lon="0.22593">
        <ele>16</ele>
        <time>2015-11-16T13:10:08Z</time>
      </trkpt>
      <trkpt lat="44.03857" lon="0.22585">
        <ele>17</ele>
        <time>2015-11-16T13:10:17Z</time>
      </trkpt>
      <trkpt lat="44.0385" lon="0.22577">
        <ele>17</ele>
        <time>2015-11-16T13:10:25Z</time>
      </trkpt>
      <trkpt lat="44.03843" lon="0.22567">
        <ele>17</ele>
        <time>2015-11-16T13:10:34Z</time>
      </trkpt>
      <trkpt lat="44.03836" lon="0.22558">
        <ele>17</ele>
        <time>2015-11-16T13:10:42Z</time>
      </trkpt>
      <trkpt lat="44.0383" lon="0.22548">
        <ele>17</ele>
        <time>2015-11-16T13:10:49Z</time>
      </trkpt>
      <trkpt lat="44.03822" lon="0.22542">
        <ele>17</ele>
        <time>2015-11-16T13:10:56Z</time>
      </trkpt>
      <trkpt lat="44.03814" lon="0.22533">
        <ele>17</ele>
        <time>2015-11-16T13:11:04Z</time>
      </trkpt>
      <trkpt lat="44.03807" lon="0.22525">
        <ele>17</ele>
        <time>2015-11-16T13:11:12Z</time>
      </trkpt>
      <trkpt lat="44.038" lon="0.22516">
        <ele>17</ele>
        <time>2015-11-16T13:11:20Z</time>
      </trkpt>
      <trkpt lat="44.03794" lon="0.22507">
        <ele>17</ele>
        <time>2015-11-16T13:11:28Z</time>
      </trkpt>
      <trkpt lat="44.03788" lon="0.22498">
        <ele>17</ele>
        <time>2015-11-16T13:11:37Z</time>
      </trkpt>
      <trkpt lat="44.0378" lon="0.2249">
        <ele>17</ele>
        <time>2015-11-16T13:11:45Z</time>
      </trkpt>
      <trkpt lat="44.03772" lon="0.22484">
        <ele>12</ele>
        <time>2015-11-16T13:11:54Z</time>
      </trkpt>
      <trkpt lat="44.03764" lon="0.22478">
        <ele>12</ele>
        <time>2015-11-16T13:12:02Z</time>
      </trkpt>
      <trkpt lat="44.03755" lon="0.22473">
        <ele>12</ele>
        <time>2015-11-16T13:12:11Z</time>
      </trkpt>
      <trkpt lat="44.03746" lon="0.22469">
        <ele>12</ele>
        <time>2015-11-16T13:12:20Z</time>
      </trkpt>
      <trkpt lat="44.03736" lon="0.22465">
        <ele>12</ele>
        <time>2015-11-16T13:12:27Z</time>
      </trkpt>
      <trkpt lat="44.03726" lon="0.22461">
        <ele>12</ele>
        <time>2015-11-16T13:12:34Z</time>
      </trkpt>
      <trkpt lat="44.03717" lon="0.22459">
        <ele>12</ele>
        <time>2015-11-16T13:12:41Z</time>
      </trkpt>
      <trkpt lat="44.03707" lon="0.22457">
        <ele>8</ele>
        <time>2015-11-16T13:12:48Z</time>
      </trkpt>
      <trkpt lat="44.03697" lon="0.22455">
        <ele>8</ele>
        <time>2015-11-16T13:12:55Z</time>
      </trkpt>
      <trkpt lat="44.03687" lon="0.22453">
        <ele>8</ele>
        <time>2015-11-16T13:13:02Z</time>
      </trkpt>
      <trkpt lat="44.03678" lon="0.22451">
        <ele>8</ele>
        <time>2015-11-16T13:13:10Z</time>
      </trkpt>
      <trkpt lat="44.03668" lon="0.22448">
        <ele>8</ele>
        <time>2015-11-16T13:13:19Z</time>
      </trkpt>
      <trkpt lat="44.03662" lon="0.22438">
        <ele>8</ele>
        <time>2015-11-16T13:13:34Z</time>
      </trkpt>
      <trkpt lat="44.03668" lon="0.22428">
        <ele>8</ele>
        <time>2015-11-16T13:13:46Z</time>
      </trkpt>
      <trkpt lat="44.03675" lon="0.22419">
        <ele>8</ele>
        <time>2015-11-16T13:13:55Z</time>
      </trkpt>
      <trkpt lat="44.03681" lon="0.22409">
        <ele>8</ele>
        <time>2015-11-16T13:14:04Z</time>
      </trkpt>
      <trkpt lat="44.03688" lon="0.22399">
        <ele>8</ele>
        <time>2015-11-16T13:14:12Z</time>
      </trkpt>
      <trkpt lat="44.03694" lon="0.2239">
        <ele>8</ele>
        <time>2015-11-16T13:14:20Z</time>
      </trkpt>
      <trkpt lat="44.037" lon="0.22379">
        <ele>8</ele>
        <time>2015-11-16T13:14:28Z</time>
      </trkpt>
      <trkpt lat="44.03706" lon="0.22368">
        <ele>8</ele>
        <time>2015-11-16T13:14:36Z</time>
      </trkpt>
      <trkpt lat="44.0371" lon="0.22356">
        <ele>8</ele>
        <time>2015-11-16T13:14:44Z</time>
      </trkpt>
      <trkpt lat="44.03716" lon="0.22345">
        <ele>8</ele>
        <time>2015-11-16T13:14:53Z</time>
      </trkpt>
      <trkpt lat="44.03721" lon="0.22335">
        <ele>8</ele>
        <time>2015-11-16T13:15:01Z</time>
      </trkpt>
      <trkpt lat="44.03727" lon="0.22325">
        <ele>8</ele>
        <time>2015-11-16T13:15:09Z</time>
      </trkpt>
      <trkpt lat="44.03732" lon="0.22314">
        <ele>8</ele>
        <time>2015-11-16T13:15:18Z</time>
      </trkpt>
      <trkpt lat="44.03735" lon="0.22302">
        <ele>8</ele>
        <time>2015-11-16T13:15:27Z</time>
      </trkpt>
      <trkpt lat="44.03739" lon="0.22289">
        <ele>8</ele>
        <time>2015-11-16T13:15:35Z</time>
      </trkpt>
      <trkpt lat="44.03742" lon="0.22277">
        <ele>8</ele>
        <time>2015-11-16T13:15:43Z</time>
      </trkpt>
      <trkpt lat="44.03745" lon="0.22265">
        <ele>8</ele>
        <time>2015-11-16T13:15:51Z</time>
      </trkpt>
      <trkpt lat="44.03748" lon="0.22252">
        <ele>9</ele>
        <time>2015-11-16T13:15:58Z</time>
      </trkpt>
      <trkpt lat="44.0375" lon="0.22239">
        <ele>9</ele>
        <time>2015-11-16T13:16:05Z</time>
      </trkpt>
      <trkpt lat="44.03753" lon="0.22227">
        <ele>9</ele>
        <time>2015-11-16T13:16:12Z</time>
      </trkpt>
      <trkpt lat="44.03754" lon="0.22214">
        <ele>9</ele>
        <time>2015-11-16T13:16:20Z</time>
      </trkpt>
      <trkpt lat="44.03755" lon="0.22201">
        <ele>9</ele>
        <time>2015-11-16T13:16:27Z</time>
      </trkpt>
      <trkpt lat="44.03756" lon="0.22188">
        <ele>9</ele>
        <time>2015-11-16T13:16:35Z</time>
      </trkpt>
      <trkpt lat="44.03758" lon="0.22174">
        <ele>9</ele>
        <time>2015-11-16T13:16:43Z</time>
      </trkpt>
      <trkpt lat="44.0376" lon="0.22161">
        <ele>9</ele>
        <time>2015-11-16T13:16:50Z</time>
      </trkpt>
      <trkpt lat="44.03762" lon="0.22149">
        <ele>9</ele>
        <time>2015-11-16T13:16:57Z</time>
      </trkpt>
      <trkpt lat="44.03764" lon="0.22135">
        <ele>9</ele>
        <time>2015-11-16T13:17:05Z</time>
      </trkpt>
      <trkpt lat="44.03766" lon="0.22121">
        <ele>9</ele>
        <time>2015-11-16T13:17:13Z</time>
      </trkpt>
      <trkpt lat="44.03768" lon="0.22108">
        <ele>9</ele>
        <time>2015-11-16T13:17:21Z</time>
      </trkpt>
      <trkpt lat="44.0377" lon="0.22094">
        <ele>9</ele>
        <time>2015-11-16T13:17:29Z</time>
      </trkpt>
      <trkpt lat="44.03771" lon="0.22081">
        <ele>9</ele>
        <time>2015-11-16T13:17:37Z</time>
      </trkpt>
      <trkpt lat="44.03772" lon="0.22067">
        <ele>9</ele>
        <time>2015-11-16T13:17:45Z</time>
      </trkpt>
      <trkpt lat="44.03774" lon="0.22053">
        <ele>9</ele>
        <time>2015-11-16T13:17:53Z</time>
      </trkpt>
      <trkpt lat="44.03775" lon="0.22041">
        <ele>9</ele>
        <time>2015-11-16T13:18:00Z</time>
      </trkpt>
      <trkpt lat="44.03777" lon="0.22028">
        <ele>9</ele>
        <time>2015-11-16T13:18:08Z</time>
      </trkpt>
      <trkpt lat="44.0378" lon="0.22015">
        <ele>9</ele>
        <time>2015-11-16T13:18:16Z</time>
      </trkpt>
      <trkpt lat="44.03782" lon="0.22002">
        <ele>9</ele>
        <time>2015-11-16T13:18:24Z</time>
      </trkpt>
      <trkpt lat="44.03785" lon="0.21989">
        <ele>9</ele>
        <time>2015-11-16T13:18:33Z</time>
      </trkpt>
      <trkpt lat="44.0379" lon="0.21978">
        <ele>9</ele>
        <time>2015-11-16T13:18:41Z</time>
      </trkpt>
      <trkpt lat="44.03796" lon="0.21967">
        <ele>9</ele>
        <time>2015-11-16T13:18:49Z</time>
      </trkpt>
      <trkpt lat="44.03801" lon="0.21956">
        <ele>9</ele>
        <time>2015-11-16T13:18:57Z</time>
      </trkpt>
      <trkpt lat="44.03804" lon="0.21944">
        <ele>9</ele>
        <time>2015-11-16T13:19:06Z</time>
      </trkpt>
      <trkpt lat="44.03803" lon="0.21931">
        <ele>9</ele>
        <time>2015-11-16T13:19:15Z</time>
      </trkpt>
      <trkpt lat="44.03801" lon="0.21918">
        <ele>9</ele>
        <time>2015-11-16T13:19:24Z</time>
      </trkpt>
      <trkpt lat="44.03798" lon="0.21905">
        <ele>10</ele>
        <time>2015-11-16T13:19:33Z</time>
      </trkpt>
      <trkpt lat="44.03794" lon="0.21893">
        <ele>10</ele>
        <time>2015-11-16T13:19:41Z</time>
      </trkpt>
      <trkpt lat="44.0379" lon="0.21881">
        <ele>10</ele>
        <time>2015-11-16T13:19:49Z</time>
      </trkpt>
      <trkpt lat="44.03786" lon="0.21868">
        <ele>10</ele>
        <time>2015-11-16T13:19:58Z</time>
      </trkpt>
      <trkpt lat="44.03782" lon="0.21856">
        <ele>10</ele>
        <time>2015-11-16T13:20:06Z</time>
      </trkpt>
      <trkpt lat="44.03779" lon="0.21843">
        <ele>10</ele>
        <time>2015-11-16T13:20:14Z</time>
      </trkpt>
      <trkpt lat="44.03776" lon="0.21831">
        <ele>10</ele>
        <time>2015-11-16T13:20:22Z</time>
      </trkpt>
      <trkpt lat="44.03774" lon="0.21818">
        <ele>10</ele>
        <time>2015-11-16T13:20:30Z</time>
      </trkpt>
      <trkpt lat="44.03772" lon="0.21804">
        <ele>10</ele>
        <time>2015-11-16T13:20:39Z</time>
      </trkpt>
      <trkpt lat="44.0377" lon="0.21791">
        <ele>10</ele>
        <time>2015-11-16T13:20:49Z</time>
      </trkpt>
      <trkpt lat="44.03767" lon="0.21778">
        <ele>10</ele>
        <time>2015-11-16T13:20:58Z</time>
      </trkpt>
      <trkpt lat="44.03765" lon="0.21766">
        <ele>10</ele>
        <time>2015-11-16T13:21:09Z</time>
      </trkpt>
      <trkpt lat="44.03764" lon="0.21753">
        <ele>10</ele>
        <time>2015-11-16T13:21:24Z</time>
      </trkpt>
      <trkpt lat="44.03764" lon="0.2174">
        <ele>10</ele>
        <time>2015-11-16T13:21:45Z</time>
      </trkpt>
      <trkpt lat="44.03762" lon="0.21727">
        <ele>10</ele>
        <time>2015-11-16T13:21:57Z</time>
      </trkpt>
      <trkpt lat="44.03762" lon="0.21714">
        <ele>10</ele>
        <time>2015-11-16T13:22:07Z</time>
      </trkpt>
      <trkpt lat="44.03762" lon="0.21702">
        <ele>10</ele>
        <time>2015-11-16T13:22:17Z</time>
      </trkpt>
      <trkpt lat="44.03761" lon="0.21688">
        <ele>10</ele>
        <time>2015-11-16T13:22:27Z</time>
      </trkpt>
      <trkpt lat="44.03759" lon="0.21675">
        <ele>10</ele>
        <time>2015-11-16T13:22:36Z</time>
      </trkpt>
      <trkpt lat="44.03757" lon="0.21663">
        <ele>10</ele>
        <time>2015-11-16T13:22:44Z</time>
      </trkpt>
      <trkpt lat="44.03756" lon="0.21649">
        <ele>10</ele>
        <time>2015-11-16T13:22:52Z</time>
      </trkpt>
      <trkpt lat="44.03754" lon="0.21636">
        <ele>10</ele>
        <time>2015-11-16T13:23:01Z</time>
      </trkpt>
      <trkpt lat="44.03753" lon="0.21622">
        <ele>10</ele>
        <time>2015-11-16T13:23:10Z</time>
      </trkpt>
      <trkpt lat="44.0375" lon="0.21609">
        <ele>10</ele>
        <time>2015-11-16T13:23:19Z</time>
      </trkpt>
      <trkpt lat="44.03746" lon="0.21597">
        <ele>10</ele>
        <time>2015-11-16T13:23:29Z</time>
      </trkpt>
      <trkpt lat="44.03745" lon="0.21583">
        <ele>14</ele>
        <time>2015-11-16T13:23:37Z</time>
      </trkpt>
      <trkpt lat="44.03745" lon="0.2157">
        <ele>14</ele>
        <time>2015-11-16T13:23:44Z</time>
      </trkpt>
      <trkpt lat="44.03745" lon="0.21557">
        <ele>14</ele>
        <time>2015-11-16T13:23:51Z</time>
      </trkpt>
      <trkpt lat="44.03744" lon="0.21543">
        <ele>14</ele>
        <time>2015-11-16T13:23:59Z</time>
      </trkpt>
      <trkpt lat="44.03744" lon="0.2153">
        <ele>14</ele>
        <time>2015-11-16T13:24:06Z</time>
      </trkpt>
      <trkpt lat="44.03743" lon="0.21516">
        <ele>14</ele>
        <time>2015-11-16T13:24:14Z</time>
      </trkpt>
      <trkpt lat="44.03742" lon="0.21502">
        <ele>14</ele>
        <time>2015-11-16T13:24:22Z</time>
      </trkpt>
      <trkpt lat="44.03741" lon="0.21489">
        <ele>14</ele>
        <time>2015-11-16T13:24:30Z</time>
      </trkpt>
      <trkpt lat="44.0374" lon="0.21475">
        <ele>14</ele>
        <time>2015-11-16T13:24:38Z</time>
      </trkpt>
      <trkpt lat="44.03738" lon="0.21462">
        <ele>14</ele>
        <time>2015-11-16T13:24:46Z</time>
      </trkpt>
      <trkpt lat="44.03733" lon="0.21451">
        <ele>14</ele>
        <time>2015-11-16T13:24:54Z</time>
      </trkpt>
      <trkpt lat="44.03725" lon="0.21446">
        <ele>14</ele>
        <time>2015-11-16T13:25:03Z</time>
      </trkpt>
      <trkpt lat="44.03715" lon="0.21447">
        <ele>14</ele>
        <time>2015-11-16T13:25:12Z</time>
      </trkpt>
      <trkpt lat="44.03706" lon="0.21448">
        <ele>14</ele>
        <time>2015-11-16T13:25:20Z</time>
      </trkpt>
      <trkpt lat="44.03697" lon="0.21449">
        <ele>14</ele>
        <time>2015-11-16T13:25:28Z</time>
      </trkpt>
      <trkpt lat="44.03687" lon="0.21451">
        <ele>14</ele>
        <time>2015-11-16T13:25:36Z</time>
      </trkpt>
      <trkpt lat="44.03677" lon="0.21452">
        <ele>14</ele>
        <time>2015-11-16T13:25:44Z</time>
      </trkpt>
      <trkpt lat="44.03667" lon="0.21453">
        <ele>14</ele>
        <time>2015-11-16T13:25:53Z</time>
      </trkpt>
      <trkpt lat="44.03658" lon="0.21453">
        <ele>14</ele>
        <time>2015-11-16T13:26:01Z</time>
      </trkpt>
      <trkpt lat="44.03648" lon="0.21451">
        <ele>14</ele>
        <time>2015-11-16T13:26:10Z</time>
      </trkpt>
      <trkpt lat="44.03638" lon="0.21449">
        <ele>14</ele>
        <time>2015-11-16T13:26:19Z</time>
      </trkpt>
      <trkpt lat="44.03629" lon="0.21446">
        <ele>14</ele>
        <time>2015-11-16T13:26:27Z</time>
      </trkpt>
      <trkpt lat="44.0362" lon="0.21442">
        <ele>14</ele>
        <time>2015-11-16T13:26:35Z</time>
      </trkpt>
      <trkpt lat="44.03611" lon="0.21439">
        <ele>14</ele>
        <time>2015-11-16T13:26:43Z</time>
      </trkpt>
      <trkpt lat="44.03602" lon="0.21434">
        <ele>14</ele>
        <time>2015-11-16T13:26:52Z</time>
      </trkpt>
      <trkpt lat="44.03593" lon="0.21429">
        <ele>14</ele>
        <time>2015-11-16T13:27:01Z</time>
      </trkpt>
      <trkpt lat="44.03585" lon="0.21423">
        <ele>12</ele>
        <time>2015-11-16T13:27:10Z</time>
      </trkpt>
      <trkpt lat="44.03577" lon="0.21416">
        <ele>12</ele>
        <time>2015-11-16T13:27:19Z</time>
      </trkpt>
      <trkpt lat="44.03568" lon="0.21412">
        <ele>8</ele>
        <time>2015-11-16T13:27:31Z</time>
      </trkpt>
      <trkpt lat="44.03559" lon="0.21416">
        <ele>8</ele>
        <time>2015-11-16T13:27:50Z</time>
      </trkpt>
      <trkpt lat="44.0355" lon="0.2142">
        <ele>8</ele>
        <time>2015-11-16T13:28:00Z</time>
      </trkpt>
      <trkpt lat="44.03542" lon="0.21425">
        <ele>8</ele>
        <time>2015-11-16T13:28:08Z</time>
      </trkpt>
      <trkpt lat="44.03534" lon="0.21431">
        <ele>8</ele>
        <time>2015-11-16T13:28:16Z</time>
      </trkpt>
      <trkpt lat="44.03526" lon="0.21439">
        <ele>8</ele>
        <time>2015-11-16T13:28:25Z</time>
      </trkpt>
      <trkpt lat="44.03518" lon="0.21445">
        <ele>8</ele>
        <time>2015-11-16T13:28:35Z</time>
      </trkpt>
      <trkpt lat="44.0351" lon="0.21454">
        <ele>8</ele>
        <time>2015-11-16T13:28:45Z</time>
      </trkpt>
      <trkpt lat="44.03502" lon="0.21461">
        <ele>8</ele>
        <time>2015-11-16T13:28:53Z</time>
      </trkpt>
      <trkpt lat="44.03494" lon="0.2147">
        <ele>8</ele>
        <time>2015-11-16T13:29:01Z</time>
      </trkpt>
      <trkpt lat="44.03486" lon="0.21478">
        <ele>8</ele>
        <time>2015-11-16T13:29:09Z</time>
      </trkpt>
      <trkpt lat="44.03479" lon="0.21486">
        <ele>8</ele>
        <time>2015-11-16T13:29:17Z</time>
      </trkpt>
      <trkpt lat="44.03469" lon="0.21485">
        <ele>8</ele>
        <time>2015-11-16T13:29:36Z</time>
      </trkpt>
      <trkpt lat="44.03459" lon="0.21485">
        <ele>12</ele>
        <time>2015-11-16T13:29:48Z</time>
      </trkpt>
      <trkpt lat="44.03449" lon="0.21482">
        <ele>12</ele>
        <time>2015-11-16T13:29:58Z</time>
      </trkpt>
      <trkpt lat="44.03439" lon="0.21479">
        <ele>12</ele>
        <time>2015-11-16T13:30:07Z</time>
      </trkpt>
      <trkpt lat="44.0343" lon="0.21475">
        <ele>12</ele>
        <time>2015-11-16T13:30:16Z</time>
      </trkpt>
      <trkpt lat="44.03421" lon="0.21472">
        <ele>12</ele>
        <time>2015-11-16T13:30:24Z</time>
      </trkpt>
      <trkpt lat="44.03411" lon="0.21469">
        <ele>12</ele>
        <time>2015-11-16T13:30:32Z</time>
      </trkpt>
      <trkpt lat="44.03403" lon="0.21466">
        <ele>12</ele>
        <time>2015-11-16T13:30:41Z</time>
      </trkpt>
      <trkpt lat="44.03394" lon="0.21462">
        <ele>12</ele>
        <time>2015-11-16T13:30:48Z</time>
      </trkpt>
      <trkpt lat="44.03385" lon="0.21457">
        <ele>12</ele>
        <time>2015-11-16T13:30:55Z</time>
      </trkpt>
      <trkpt lat="44.03376" lon="0.21453">
        <ele>12</ele>
        <time>2015-11-16T13:31:03Z</time>
      </trkpt>
      <trkpt lat="44.03367" lon="0.21449">
        <ele>12</ele>
        <time>2015-11-16T13:31:11Z</time>
      </trkpt>
      <trkpt lat="44.03358" lon="0.21443">
        <ele>12</ele>
        <time>2015-11-16T13:31:20Z</time>
      </trkpt>
      <trkpt lat="44.03349" lon="0.21438">
        <ele>12</ele>
        <time>2015-11-16T13:31:29Z</time>
      </trkpt>
      <trkpt lat="44.0334" lon="0.21433">
        <ele>12</ele>
        <time>2015-11-16T13:31:38Z</time>
      </trkpt>
      <trkpt lat="44.03331" lon="0.21429">
        <ele>12</ele>
        <time>2015-11-16T13:31:46Z</time>
      </trkpt>
      <trkpt lat="44.03322" lon="0.21424">
        <ele>12</ele>
        <time>2015-11-16T13:31:56Z</time>
      </trkpt>
      <trkpt lat="44.03313" lon="0.21421">
        <ele>12</ele>
        <time>2015-11-16T13:32:04Z</time>
      </trkpt>
      <trkpt lat="44.03303" lon="0.21418">
        <ele>12</ele>
        <time>2015-11-16T13:32:12Z</time>
      </trkpt>
      <trkpt lat="44.03294" lon="0.2142">
        <ele>17</ele>
        <time>2015-11-16T13:32:19Z</time>
      </trkpt>
      <trkpt lat="44.03285" lon="0.21424">
        <ele>17</ele>
        <time>2015-11-16T13:32:25Z</time>
      </trkpt>
      <trkpt lat="44.03276" lon="0.21428">
        <ele>17</ele>
        <time>2015-11-16T13:32:31Z</time>
      </trkpt>
      <trkpt lat="44.03266" lon="0.21433">
        <ele>17</ele>
        <time>2015-11-16T13:32:38Z</time>
      </trkpt>
      <trkpt lat="44.03257" lon="0.21438">
        <ele>17</ele>
        <time>2015-11-16T13:32:45Z</time>
      </trkpt>
      <trkpt lat="44.03249" lon="0.21443">
        <ele>22</ele>
        <time>2015-11-16T13:32:52Z</time>
      </trkpt>
      <trkpt lat="44.03241" lon="0.21449">
        <ele>22</ele>
        <time>2015-11-16T13:32:59Z</time>
      </trkpt>
      <trkpt lat="44.03232" lon="0.21455">
        <ele>22</ele>
        <time>2015-11-16T13:33:07Z</time>
      </trkpt>
      <trkpt lat="44.03223" lon="0.21462">
        <ele>22</ele>
        <time>2015-11-16T13:33:15Z</time>
      </trkpt>
      <trkpt lat="44.03214" lon="0.21468">
        <ele>22</ele>
        <time>2015-11-16T13:33:23Z</time>
      </trkpt>
      <trkpt lat="44.03205" lon="0.21474">
        <ele>22</ele>
        <time>2015-11-16T13:33:31Z</time>
      </trkpt>
      <trkpt lat="44.03196" lon="0.21481">
        <ele>22</ele>
        <time>2015-11-16T13:33:40Z</time>
      </trkpt>
      <trkpt lat="44.03188" lon="0.21487">
        <ele>22</ele>
        <time>2015-11-16T13:33:48Z</time>
      </trkpt>
      <trkpt lat="44.0318" lon="0.21493">
        <ele>22</ele>
        <time>2015-11-16T13:33:56Z</time>
      </trkpt>
      <trkpt lat="44.03172" lon="0.21499">
        <ele>22</ele>
        <time>2015-11-16T13:34:04Z</time>
      </trkpt>
      <trkpt lat="44.03163" lon="0.21506">
        <ele>27</ele>
        <time>2015-11-16T13:34:13Z</time>
      </trkpt>
      <trkpt lat="44.03154" lon="0.21512">
        <ele>27</ele>
        <time>2015-11-16T13:34:22Z</time>
      </trkpt>
      <trkpt lat="44.03146" lon="0.21518">
        <ele>27</ele>
        <time>2015-11-16T13:34:31Z</time>
      </trkpt>
      <trkpt lat="44.03137" lon="0.21525">
        <ele>27</ele>
        <time>2015-11-16T13:34:40Z</time>
      </trkpt>
      <trkpt lat="44.03129" lon="0.21532">
        <ele>27</ele>
        <time>2015-11-16T13:34:49Z</time>
      </trkpt>
      <trkpt lat="44.0312" lon="0.21538">
        <ele>27</ele>
        <time>2015-11-16T13:34:58Z</time>
      </trkpt>
      <trkpt lat="44.03111" lon="0.21544">
        <ele>31</ele>
        <time>2015-11-16T13:35:07Z</time>
      </trkpt>
      <trkpt lat="44.03102" lon="0.21549">
        <ele>31</ele>
        <time>2015-11-16T13:35:17Z</time>
      </trkpt>
      <trkpt lat="44.03093" lon="0.21553">
        <ele>31</ele>
        <time>2015-11-16T13:35:29Z</time>
      </trkpt>
      <trkpt lat="44.03084" lon="0.21555">
        <ele>31</ele>
        <time>2015-11-16T13:35:43Z</time>
      </trkpt>
      <trkpt lat="44.03075" lon="0.21559">
        <ele>31</ele>
        <time>2015-11-16T13:35:57Z</time>
      </trkpt>
      <trkpt lat="44.03067" lon="0.21563">
        <ele>31</ele>
        <time>2015-11-16T13:36:06Z</time>
      </trkpt>
      <trkpt lat="44.03058" lon="0.21569">
        <ele>31</ele>
        <time>2015-11-16T13:36:14Z</time>
      </trkpt>
      <trkpt lat="44.03049" lon="0.21574">
        <ele>31</ele>
        <time>2015-11-16T13:36:22Z</time>
      </trkpt>
      <trkpt lat="44.03041" lon="0.21579">
        <ele>35</ele>
        <time>2015-11-16T13:36:31Z</time>
      </trkpt>
      <trkpt lat="44.03032" lon="0.21585">
        <ele>35</ele>
        <time>2015-11-16T13:36:42Z</time>
      </trkpt>
      <trkpt lat="44.03022" lon="0.21587">
        <ele>35</ele>
        <time>2015-11-16T13:36:51Z</time>
      </trkpt>
      <trkpt lat="44.03013" lon="0.2159">
        <ele>35</ele>
        <time>2015-11-16T13:37:00Z</time>
      </trkpt>
      <trkpt lat="44.03003" lon="0.2159">
        <ele>35</ele>
        <time>2015-11-16T13:37:08Z</time>
      </trkpt>
      <trkpt lat="44.02993" lon="0.2159">
        <ele>35</ele>
        <time>2015-11-16T13:37:16Z</time>
      </trkpt>
      <trkpt lat="44.02984" lon="0.21589">
        <ele>35</ele>
        <time>2015-11-16T13:37:23Z</time>
      </trkpt>
      <trkpt lat="44.02974" lon="0.21589">
        <ele>35</ele>
        <time>2015-11-16T13:37:30Z</time>
      </trkpt>
      <trkpt lat="44.02965" lon="0.21589">
        <ele>35</ele>
        <time>2015-11-16T13:37:39Z</time>
      </trkpt>
      <trkpt lat="44.02956" lon="0.21591">
        <ele>35</ele>
        <time>2015-11-16T13:37:46Z</time>
      </trkpt>
      <trkpt lat="44.02946" lon="0.2159">
        <ele>35</ele>
        <time>2015-11-16T13:37:54Z</time>
      </trkpt>
      <trkpt lat="44.02937" lon="0.21591">
        <ele>35</ele>
        <time>2015-11-16T13:38:03Z</time>
      </trkpt>
      <trkpt lat="44.02927" lon="0.21592">
        <ele>35</ele>
        <time>2015-11-16T13:38:12Z</time>
      </trkpt>
      <trkpt lat="44.02918" lon="0.21594">
        <ele>35</ele>
        <time>2015-11-16T13:38:20Z</time>
      </trkpt>
      <trkpt lat="44.02908" lon="0.21596">
        <ele>35</ele>
        <time>2015-11-16T13:38:28Z</time>
      </trkpt>
      <trkpt lat="44.02898" lon="0.21597">
        <ele>35</ele>
        <time>2015-11-16T13:38:36Z</time>
      </trkpt>
      <trkpt lat="44.02889" lon="0.21599">
        <ele>35</ele>
        <time>2015-11-16T13:38:43Z</time>
      </trkpt>
      <trkpt lat="44.02879" lon="0.21602">
        <ele>35</ele>
        <time>2015-11-16T13:38:50Z</time>
      </trkpt>
      <trkpt lat="44.02869" lon="0.21603">
        <ele>35</ele>
        <time>2015-11-16T13:38:58Z</time>
      </trkpt>
      <trkpt lat="44.0286" lon="0.21602">
        <ele>35</ele>
        <time>2015-11-16T13:39:05Z</time>
      </trkpt>
      <trkpt lat="44.0285" lon="0.21601">
        <ele>35</ele>
        <time>2015-11-16T13:39:18Z</time>
      </trkpt>
      <trkpt lat="44.02841" lon="0.21604">
        <ele>33</ele>
        <time>2015-11-16T13:39:49Z</time>
      </trkpt>
      <trkpt lat="44.02834" lon="0.21611">
        <ele>33</ele>
        <time>2015-11-16T13:41:04Z</time>
      </trkpt>
      <trkpt lat="44.02838" lon="0.216">
        <ele>33</ele>
        <time>2015-11-16T13:42:30Z</time>
      </trkpt>
      <trkpt lat="44.0284" lon="0.21587">
        <ele>33</ele>
        <time>2015-11-16T13:42:41Z</time>
      </trkpt>
      <trkpt lat="44.02842" lon="0.21574">
        <ele>33</ele>
        <time>2015-11-16T13:42:52Z</time>
      </trkpt>
      <trkpt lat="44.02843" lon="0.21561">
        <ele>33</ele>
        <time>2015-11-16T13:43:03Z</time>
      </trkpt>
      <trkpt lat="44.02846" lon="0.21547">
        <ele>33</ele>
        <time>2015-11-16T13:43:13Z</time>
      </trkpt>
      <trkpt lat="44.02849" lon="0.21535">
        <ele>33</ele>
        <time>2015-11-16T13:43:22Z</time>
      </trkpt>
      <trkpt lat="44.02851" lon="0.21522">
        <ele>37</ele>
        <time>2015-11-16T13:43:30Z</time>
      </trkpt>
      <trkpt lat="44.02853" lon="0.2151">
        <ele>37</ele>
        <time>2015-11-16T13:43:39Z</time>
      </trkpt>
      <trkpt lat="44.02855" lon="0.21497">
        <ele>37</ele>
        <time>2015-11-16T13:43:48Z</time>
      </trkpt>
      <trkpt lat="44.02858" lon="0.21483">
        <ele>37</ele>
        <time>2015-11-16T13:43:57Z</time>
      </trkpt>
      <trkpt lat="44.02861" lon="0.21472">
        <ele>37</ele>
        <time>2015-11-16T13:44:12Z</time>
      </trkpt>
      <trkpt lat="44.02864" lon="0.21459">
        <ele>37</ele>
        <time>2015-11-16T13:44:21Z</time>
      </trkpt>
      <trkpt lat="44.02866" lon="0.21445">
        <ele>37</ele>
        <time>2015-11-16T13:44:31Z</time>
      </trkpt>
      <trkpt lat="44.02868" lon="0.21433">
        <ele>37</ele>
        <time>2015-11-16T13:44:41Z</time>
      </trkpt>
      <trkpt lat="44.02869" lon="0.2142">
        <ele>37</ele>
        <time>2015-11-16T13:44:50Z</time>
      </trkpt>
      <trkpt lat="44.02871" lon="0.21407">
        <ele>37</ele>
        <time>2015-11-16T13:44:59Z</time>
      </trkpt>
      <trkpt lat="44.02873" lon="0.21394">
        <ele>37</ele>
        <time>2015-11-16T13:45:10Z</time>
      </trkpt>
      <trkpt lat="44.02874" lon="0.21381">
        <ele>37</ele>
        <time>2015-11-16T13:45:19Z</time>
      </trkpt>
      <trkpt lat="44.02877" lon="0.21369">
        <ele>37</ele>
        <time>2015-11-16T13:45:28Z</time>
      </trkpt>
      <trkpt lat="44.02878" lon="0.21356">
        <ele>37</ele>
        <time>2015-11-16T13:45:37Z</time>
      </trkpt>
      <trkpt lat="44.02879" lon="0.21344">
        <ele>37</ele>
        <time>2015-11-16T13:45:46Z</time>
      </trkpt>
      <trkpt lat="44.02882" lon="0.21331">
        <ele>37</ele>
        <time>2015-11-16T13:45:55Z</time>
      </trkpt>
      <trkpt lat="44.02884" lon="0.21318">
        <ele>32</ele>
        <time>2015-11-16T13:46:05Z</time>
      </trkpt>
      <trkpt lat="44.02882" lon="0.21306">
        <ele>32</ele>
        <time>2015-11-16T13:46:25Z</time>
      </trkpt>
      <trkpt lat="44.02875" lon="0.21298">
        <ele>32</ele>
        <time>2015-11-16T13:46:38Z</time>
      </trkpt>
      <trkpt lat="44.02866" lon="0.21292">
        <ele>32</ele>
        <time>2015-11-16T13:46:53Z</time>
      </trkpt>
      <trkpt lat="44.02857" lon="0.21289">
        <ele>32</ele>
        <time>2015-11-16T13:47:06Z</time>
      </trkpt>
      <trkpt lat="44.02848" lon="0.21286">
        <ele>32</ele>
        <time>2015-11-16T13:47:19Z</time>
      </trkpt>
      <trkpt lat="44.02839" lon="0.21284">
        <ele>32</ele>
        <time>2015-11-16T13:47:30Z</time>
      </trkpt>
      <trkpt lat="44.0283" lon="0.21283">
        <ele>32</ele>
        <time>2015-11-16T13:47:40Z</time>
      </trkpt>
      <trkpt lat="44.0282" lon="0.2128">
        <ele>32</ele>
        <time>2015-11-16T13:47:51Z</time>
      </trkpt>
      <trkpt lat="44.02811" lon="0.21276">
        <ele>36</ele>
        <time>2015-11-16T13:48:01Z</time>
      </trkpt>
      <trkpt lat="44.02802" lon="0.21273">
        <ele>36</ele>
        <time>2015-11-16T13:48:11Z</time>
      </trkpt>
      <trkpt lat="44.02794" lon="0.21268">
        <ele>36</ele>
        <time>2015-11-16T13:48:21Z</time>
      </trkpt>
      <trkpt lat="44.02788" lon="0.21258">
        <ele>36</ele>
        <time>2015-11-16T13:48:32Z</time>
      </trkpt>
      <trkpt lat="44.02784" lon="0.21246">
        <ele>36</ele>
        <time>2015-11-16T13:48:46Z</time>
      </trkpt>
      <trkpt lat="44.02785" lon="0.21233">
        <ele>36</ele>
        <time>2015-11-16T13:48:58Z</time>
      </trkpt>
      <trkpt lat="44.02785" lon="0.2122">
        <ele>36</ele>
        <time>2015-11-16T13:49:09Z</time>
      </trkpt>
      <trkpt lat="44.02785" lon="0.21206">
        <ele>36</ele>
        <time>2015-11-16T13:49:21Z</time>
      </trkpt>
      <trkpt lat="44.02785" lon="0.21192">
        <ele>36</ele>
        <time>2015-11-16T13:49:30Z</time>
      </trkpt>
      <trkpt lat="44.02785" lon="0.21178">
        <ele>36</ele>
        <time>2015-11-16T13:49:39Z</time>
      </trkpt>
      <trkpt lat="44.02784" lon="0.21166">
        <ele>36</ele>
        <time>2015-11-16T13:49:47Z</time>
      </trkpt>
      <trkpt lat="44.02782" lon="0.21152">
        <ele>36</ele>
        <time>2015-11-16T13:49:56Z</time>
      </trkpt>
      <trkpt lat="44.02782" lon="0.21139">
        <ele>36</ele>
        <time>2015-11-16T13:50:05Z</time>
      </trkpt>
      <trkpt lat="44.02779" lon="0.21127">
        <ele>36</ele>
        <time>2015-11-16T13:50:14Z</time>
      </trkpt>
      <trkpt lat="44.02774" lon="0.21116">
        <ele>36</ele>
        <time>2015-11-16T13:50:24Z</time>
      </trkpt>
      <trkpt lat="44.02766" lon="0.21108">
        <ele>36</ele>
        <time>2015-11-16T13:50:34Z</time>
      </trkpt>
      <trkpt lat="44.02759" lon="0.211">
        <ele>36</ele>
        <time>2015-11-16T13:50:44Z</time>
      </trkpt>
      <trkpt lat="44.02753" lon="0.2109">
        <ele>37</ele>
        <time>2015-11-16T13:50:55Z</time>
      </trkpt>
      <trkpt lat="44.02748" lon="0.2108">
        <ele>37</ele>
        <time>2015-11-16T13:51:06Z</time>
      </trkpt>
      <trkpt lat="44.02746" lon="0.21067">
        <ele>37</ele>
        <time>2015-11-16T13:51:16Z</time>
      </trkpt>
      <trkpt lat="44.02742" lon="0.21054">
        <ele>37</ele>
        <time>2015-11-16T13:51:26Z</time>
      </trkpt>
      <trkpt lat="44.02742" lon="0.21041">
        <ele>37</ele>
        <time>2015-11-16T13:51:35Z</time>
      </trkpt>
      <trkpt lat="44.0274" lon="0.21028">
        <ele>37</ele>
        <time>2015-11-16T13:51:45Z</time>
      </trkpt>
      <trkpt lat="44.02741" lon="0.21015">
        <ele>37</ele>
        <time>2015-11-16T13:51:54Z</time>
      </trkpt>
      <trkpt lat="44.02743" lon="0.21002">
        <ele>37</ele>
        <time>2015-11-16T13:52:03Z</time>
      </trkpt>
      <trkpt lat="44.02744" lon="0.20989">
        <ele>37</ele>
        <time>2015-11-16T13:52:12Z</time>
      </trkpt>
      <trkpt lat="44.02746" lon="0.20976">
        <ele>41</ele>
        <time>2015-11-16T13:52:21Z</time>
      </trkpt>
      <trkpt lat="44.02749" lon="0.20964">
        <ele>41</ele>
        <time>2015-11-16T13:52:29Z</time>
      </trkpt>
      <trkpt lat="44.02752" lon="0.20951">
        <ele>41</ele>
        <time>2015-11-16T13:52:40Z</time>
      </trkpt>
      <trkpt lat="44.02754" lon="0.20938">
        <ele>41</ele>
        <time>2015-11-16T13:52:51Z</time>
      </trkpt>
      <trkpt lat="44.02757" lon="0.20925">
        <ele>41</ele>
        <time>2015-11-16T13:53:00Z</time>
      </trkpt>
      <trkpt lat="44.0276" lon="0.20913">
        <ele>41</ele>
        <time>2015-11-16T13:53:09Z</time>
      </trkpt>
      <trkpt lat="44.02762" lon="0.209">
        <ele>41</ele>
        <time>2015-11-16T13:53:17Z</time>
      </trkpt>
      <trkpt lat="44.02765" lon="0.20887">
        <ele>41</ele>
        <time>2015-11-16T13:53:26Z</time>
      </trkpt>
      <trkpt lat="44.02767" lon="0.20875">
        <ele>41</ele>
        <time>2015-11-16T13:53:35Z</time>
      </trkpt>
      <trkpt lat="44.0277" lon="0.20862">
        <ele>41</ele>
        <time>2015-11-16T13:53:45Z</time>
      </trkpt>
      <trkpt lat="44.02773" lon="0.20849">
        <ele>41</ele>
        <time>2015-11-16T13:53:53Z</time>
      </trkpt>
      <trkpt lat="44.02774" lon="0.20835">
        <ele>41</ele>
        <time>2015-11-16T13:54:02Z</time>
      </trkpt>
      <trkpt lat="44.02776" lon="0.20823">
        <ele>41</ele>
        <time>2015-11-16T13:54:09Z</time>
      </trkpt>
      <trkpt lat="44.02777" lon="0.20809">
        <ele>41</ele>
        <time>2015-11-16T13:54:17Z</time>
      </trkpt>
      <trkpt lat="44.02778" lon="0.20796">
        <ele>41</ele>
        <time>2015-11-16T13:54:24Z</time>
      </trkpt>
      <trkpt lat="44.0278" lon="0.20783">
        <ele>41</ele>
        <time>2015-11-16T13:54:31Z</time>
      </trkpt>
      <trkpt lat="44.02781" lon="0.2077">
        <ele>45</ele>
        <time>2015-11-16T13:54:39Z</time>
      </trkpt>
      <trkpt lat="44.02783" lon="0.20757">
        <ele>45</ele>
        <time>2015-11-16T13:54:47Z</time>
      </trkpt>
      <trkpt lat="44.02785" lon="0.20744">
        <ele>45</ele>
        <time>2015-11-16T13:54:55Z</time>
      </trkpt>
      <trkpt lat="44.02787" lon="0.20731">
        <ele>45</ele>
        <time>2015-11-16T13:55:03Z</time>
      </trkpt>
      <trkpt lat="44.02789" lon="0.20718">
        <ele>45</ele>
        <time>2015-11-16T13:55:12Z</time>
      </trkpt>
      <trkpt lat="44.02793" lon="0.20706">
        <ele>45</ele>
        <time>2015-11-16T13:55:29Z</time>
      </trkpt>
      <trkpt lat="44.02797" lon="0.20694">
        <ele>45</ele>
        <time>2015-11-16T13:55:39Z</time>
      </trkpt>
      <trkpt lat="44.02803" lon="0.20684">
        <ele>45</ele>
        <time>2015-11-16T13:55:48Z</time>
      </trkpt>
      <trkpt lat="44.02807" lon="0.20672">
        <ele>45</ele>
        <time>2015-11-16T13:55:57Z</time>
      </trkpt>
      <trkpt lat="44.02809" lon="0.20659">
        <ele>45</ele>
        <time>2015-11-16T13:56:06Z</time>
      </trkpt>
      <trkpt lat="44.02811" lon="0.20647">
        <ele>45</ele>
        <time>2015-11-16T13:56:15Z</time>
      </trkpt>
      <trkpt lat="44.02813" lon="0.20633">
        <ele>45</ele>
        <time>2015-11-16T13:56:24Z</time>
      </trkpt>
      <trkpt lat="44.02813" lon="0.2062">
        <ele>45</ele>
        <time>2015-11-16T13:56:33Z</time>
      </trkpt>
      <trkpt lat="44.02808" lon="0.20609">
        <ele>49</ele>
        <time>2015-11-16T13:56:50Z</time>
      </trkpt>
      <trkpt lat="44.028" lon="0.20606">
        <ele>49</ele>
        <time>2015-11-16T13:57:01Z</time>
      </trkpt>
      <trkpt lat="44.0279" lon="0.20606">
        <ele>49</ele>
        <time>2015-11-16T13:57:13Z</time>
      </trkpt>
      <trkpt lat="44.02781" lon="0.20603">
        <ele>49</ele>
        <time>2015-11-16T13:57:34Z</time>
      </trkpt>
      <trkpt lat="44.02773" lon="0.20596">
        <ele>49</ele>
        <time>2015-11-16T13:57:45Z</time>
      </trkpt>
      <trkpt lat="44.02771" lon="0.20583">
        <ele>49</ele>
        <time>2015-11-16T13:58:00Z</time>
      </trkpt>
      <trkpt lat="44.02769" lon="0.20571">
        <ele>49</ele>
        <time>2015-11-16T13:58:10Z</time>
      </trkpt>
      <trkpt lat="44.02769" lon="0.20558">
        <ele>49</ele>
        <time>2015-11-16T13:58:19Z</time>
      </trkpt>
      <trkpt lat="44.02768" lon="0.20545">
        <ele>49</ele>
        <time>2015-11-16T13:58:28Z</time>
      </trkpt>
      <trkpt lat="44.02768" lon="0.20532">
        <ele>49</ele>
        <time>2015-11-16T13:58:36Z</time>
      </trkpt>
      <trkpt lat="44.02767" lon="0.20518">
        <ele>49</ele>
        <time>2015-11-16T13:58:50Z</time>
      </trkpt>
      <trkpt lat="44.02768" lon="0.20505">
        <ele>49</ele>
        <time>2015-11-16T13:58:58Z</time>
      </trkpt>
      <trkpt lat="44.0277" lon="0.20492">
        <ele>49</ele>
        <time>2015-11-16T13:59:06Z</time>
      </trkpt>
      <trkpt lat="44.02772" lon="0.20479">
        <ele>49</ele>
        <time>2015-11-16T13:59:24Z</time>
      </trkpt>
      <trkpt lat="44.02774" lon="0.20466">
        <ele>50</ele>
        <time>2015-11-16T14:01:53Z</time>
      </trkpt>
      <trkpt lat="44.02777" lon="0.20454">
        <ele>50</ele>
        <time>2015-11-16T14:02:34Z</time>
      </trkpt>
      <trkpt lat="44.02779" lon="0.20441">
        <ele>50</ele>
        <time>2015-11-16T14:02:45Z</time>
      </trkpt>
      <trkpt lat="44.02782" lon="0.20428">
        <ele>50</ele>
        <time>2015-11-16T14:02:56Z</time>
      </trkpt>
      <trkpt lat="44.02784" lon="0.20415">
        <ele>50</ele>
        <time>2015-11-16T14:03:06Z</time>
      </trkpt>
      <trkpt lat="44.02787" lon="0.20403">
        <ele>50</ele>
        <time>2015-11-16T14:03:15Z</time>
      </trkpt>
      <trkpt lat="44.02789" lon="0.20391">
        <ele>50</ele>
        <time>2015-11-16T14:03:25Z</time>
      </trkpt>
      <trkpt lat="44.02792" lon="0.20378">
        <ele>51</ele>
        <time>2015-11-16T14:03:35Z</time>
      </trkpt>
      <trkpt lat="44.02794" lon="0.20365">
        <ele>51</ele>
        <time>2015-11-16T14:03:44Z</time>
      </trkpt>
      <trkpt lat="44.02797" lon="0.20353">
        <ele>51</ele>
        <time>2015-11-16T14:03:54Z</time>
      </trkpt>
      <trkpt lat="44.02799" lon="0.2034">
        <ele>51</ele>
        <time>2015-11-16T14:04:04Z</time>
      </trkpt>
      <trkpt lat="44.02801" lon="0.20327">
        <ele>51</ele>
        <time>2015-11-16T14:04:13Z</time>
      </trkpt>
      <trkpt lat="44.02803" lon="0.20315">
        <ele>51</ele>
        <time>2015-11-16T14:04:22Z</time>
      </trkpt>
      <trkpt lat="44.02806" lon="0.20302">
        <ele>51</ele>
        <time>2015-11-16T14:04:32Z</time>
      </trkpt>
      <trkpt lat="44.02808" lon="0.2029">
        <ele>51</ele>
        <time>2015-11-16T14:04:41Z</time>
      </trkpt>
      <trkpt lat="44.02811" lon="0.20278">
        <ele>51</ele>
        <time>2015-11-16T14:04:50Z</time>
      </trkpt>
      <trkpt lat="44.02813" lon="0.20266">
        <ele>51</ele>
        <time>2015-11-16T14:04:59Z</time>
      </trkpt>
      <trkpt lat="44.02816" lon="0.20252">
        <ele>51</ele>
        <time>2015-11-16T14:05:09Z</time>
      </trkpt>
      <trkpt lat="44.0282" lon="0.20241">
        <ele>51</ele>
        <time>2015-11-16T14:05:19Z</time>
      </trkpt>
      <trkpt lat="44.02829" lon="0.20242">
        <ele>51</ele>
        <time>2015-11-16T14:05:30Z</time>
      </trkpt>
      <trkpt lat="44.02838" lon="0.20248">
        <ele>51</ele>
        <time>2015-11-16T14:05:39Z</time>
      </trkpt>
      <trkpt lat="44.02847" lon="0.20254">
        <ele>51</ele>
        <time>2015-11-16T14:05:48Z</time>
      </trkpt>
      <trkpt lat="44.02855" lon="0.2026">
        <ele>51</ele>
        <time>2015-11-16T14:05:57Z</time>
      </trkpt>
      <trkpt lat="44.02864" lon="0.20265">
        <ele>51</ele>
        <time>2015-11-16T14:06:06Z</time>
      </trkpt>
      <trkpt lat="44.02873" lon="0.2027">
        <ele>51</ele>
        <time>2015-11-16T14:06:15Z</time>
      </trkpt>
      <trkpt lat="44.02882" lon="0.20276">
        <ele>51</ele>
        <time>2015-11-16T14:06:24Z</time>
      </trkpt>
      <trkpt lat="44.02891" lon="0.20281">
        <ele>51</ele>
        <time>2015-11-16T14:06:39Z</time>
      </trkpt>
      <trkpt lat="44.029" lon="0.20286">
        <ele>51</ele>
        <time>2015-11-16T14:06:48Z</time>
      </trkpt>
      <trkpt lat="44.02908" lon="0.20291">
        <ele>51</ele>
        <time>2015-11-16T14:06:57Z</time>
      </trkpt>
      <trkpt lat="44.02917" lon="0.20296">
        <ele>49</ele>
        <time>2015-11-16T14:07:06Z</time>
      </trkpt>
      <trkpt lat="44.02926" lon="0.20301">
        <ele>49</ele>
        <time>2015-11-16T14:07:15Z</time>
      </trkpt>
      <trkpt lat="44.02935" lon="0.20307">
        <ele>49</ele>
        <time>2015-11-16T14:07:24Z</time>
      </trkpt>
      <trkpt lat="44.02944" lon="0.20313">
        <ele>49</ele>
        <time>2015-11-16T14:07:33Z</time>
      </trkpt>
      <trkpt lat="44.02953" lon="0.20318">
        <ele>49</ele>
        <time>2015-11-16T14:07:42Z</time>
      </trkpt>
      <trkpt lat="44.02962" lon="0.20324">
        <ele>49</ele>
        <time>2015-11-16T14:07:51Z</time>
      </trkpt>
      <trkpt lat="44.02971" lon="0.2033">
        <ele>49</ele>
        <time>2015-11-16T14:08:00Z</time>
      </trkpt>
      <trkpt lat="44.0298" lon="0.20336">
        <ele>49</ele>
        <time>2015-11-16T14:08:09Z</time>
      </trkpt>
      <trkpt lat="44.02989" lon="0.20343">
        <ele>49</ele>
        <time>2015-11-16T14:08:18Z</time>
      </trkpt>
      <trkpt lat="44.02998" lon="0.20349">
        <ele>49</ele>
        <time>2015-11-16T14:08:27Z</time>
      </trkpt>
      <trkpt lat="44.03006" lon="0.20355">
        <ele>49</ele>
        <time>2015-11-16T14:08:36Z</time>
      </trkpt>
      <trkpt lat="44.03015" lon="0.20361">
        <ele>49</ele>
        <time>2015-11-16T14:08:45Z</time>
      </trkpt>
      <trkpt lat="44.03023" lon="0.20367">
        <ele>49</ele>
        <time>2015-11-16T14:08:54Z</time>
      </trkpt>
      <trkpt lat="44.03032" lon="0.20373">
        <ele>45</ele>
        <time>2015-11-16T14:09:03Z</time>
      </trkpt>
      <trkpt lat="44.0304" lon="0.2038">
        <ele>45</ele>
        <time>2015-11-16T14:09:12Z</time>
      </trkpt>
      <trkpt lat="44.03049" lon="0.20387">
        <ele>45</ele>
        <time>2015-11-16T14:09:21Z</time>
      </trkpt>
      <trkpt lat="44.03057" lon="0.20394">
        <ele>45</ele>
        <time>2015-11-16T14:09:30Z</time>
      </trkpt>
      <trkpt lat="44.03066" lon="0.20402">
        <ele>45</ele>
        <time>2015-11-16T14:09:39Z</time>
      </trkpt>
      <trkpt lat="44.03074" lon="0.20409">
        <ele>45</ele>
        <time>2015-11-16T14:09:48Z</time>
      </trkpt>
      <trkpt lat="44.03082" lon="0.20415">
        <ele>45</ele>
        <time>2015-11-16T14:09:57Z</time>
      </trkpt>
      <trkpt lat="44.0309" lon="0.20422">
        <ele>45</ele>
        <time>2015-11-16T14:10:06Z</time>
      </trkpt>
      <trkpt lat="44.03099" lon="0.20428">
        <ele>45</ele>
        <time>2015-11-16T14:10:15Z</time>
      </trkpt>
      <trkpt lat="44.03107" lon="0.20435">
        <ele>45</ele>
        <time>2015-11-16T14:10:24Z</time>
      </trkpt>
      <trkpt lat="44.03116" lon="0.20441">
        <ele>45</ele>
        <time>2015-11-16T14:10:33Z</time>
      </trkpt>
      <trkpt lat="44.03124" lon="0.20447">
        <ele>45</ele>
        <time>2015-11-16T14:10:41Z</time>
      </trkpt>
      <trkpt lat="44.03133" lon="0.20453">
        <ele>45</ele>
        <time>2015-11-16T14:10:50Z</time>
      </trkpt>
      <trkpt lat="44.03142" lon="0.20459">
        <ele>45</ele>
        <time>2015-11-16T14:10:59Z</time>
      </trkpt>
      <trkpt lat="44.03151" lon="0.20464">
        <ele>45</ele>
        <time>2015-11-16T14:11:07Z</time>
      </trkpt>
      <trkpt lat="44.03159" lon="0.2047">
        <ele>45</ele>
        <time>2015-11-16T14:11:16Z</time>
      </trkpt>
      <trkpt lat="44.03168" lon="0.20475">
        <ele>45</ele>
        <time>2015-11-16T14:11:24Z</time>
      </trkpt>
      <trkpt lat="44.03177" lon="0.20481">
        <ele>45</ele>
        <time>2015-11-16T14:11:39Z</time>
      </trkpt>
      <trkpt lat="44.03186" lon="0.20485">
        <ele>45</ele>
        <time>2015-11-16T14:11:48Z</time>
      </trkpt>
      <trkpt lat="44.03196" lon="0.20488">
        <ele>47</ele>
        <time>2015-11-16T14:11:57Z</time>
      </trkpt>
      <trkpt lat="44.03206" lon="0.20488">
        <ele>47</ele>
        <time>2015-11-16T14:12:06Z</time>
      </trkpt>
      <trkpt lat="44.03215" lon="0.20488">
        <ele>47</ele>
        <time>2015-11-16T14:12:25Z</time>
      </trkpt>
      <trkpt lat="44.03222" lon="0.20497">
        <ele>47</ele>
        <time>2015-11-16T14:12:41Z</time>
      </trkpt>
      <trkpt lat="44.03222" lon="0.2051">
        <ele>47</ele>
        <time>2015-11-16T14:12:51Z</time>
      </trkpt>
      <trkpt lat="44.03223" lon="0.20524">
        <ele>47</ele>
        <time>2015-11-16T14:13:00Z</time>
      </trkpt>
      <trkpt lat="44.03224" lon="0.20537">
        <ele>47</ele>
        <time>2015-11-16T14:13:08Z</time>
      </trkpt>
      <trkpt lat="44.03225" lon="0.20549">
        <ele>47</ele>
        <time>2015-11-16T14:13:16Z</time>
      </trkpt>
      <trkpt lat="44.03226" lon="0.20563">
        <ele>47</ele>
        <time>2015-11-16T14:13:25Z</time>
      </trkpt>
      <trkpt lat="44.03227" lon="0.20576">
        <ele>47</ele>
        <time>2015-11-16T14:13:34Z</time>
      </trkpt>
      <trkpt lat="44.03228" lon="0.2059">
        <ele>47</ele>
        <time>2015-11-16T14:13:43Z</time>
      </trkpt>
      <trkpt lat="44.03228" lon="0.20604">
        <ele>47</ele>
        <time>2015-11-16T14:13:52Z</time>
      </trkpt>
      <trkpt lat="44.03228" lon="0.20617">
        <ele>47</ele>
        <time>2015-11-16T14:14:01Z</time>
      </trkpt>
      <trkpt lat="44.03229" lon="0.20629">
        <ele>47</ele>
        <time>2015-11-16T14:14:10Z</time>
      </trkpt>
      <trkpt lat="44.03231" lon="0.20641">
        <ele>47</ele>
        <time>2015-11-16T14:14:19Z</time>
      </trkpt>
      <trkpt lat="44.03237" lon="0.20651">
        <ele>43</ele>
        <time>2015-11-16T14:14:28Z</time>
      </trkpt>
      <trkpt lat="44.03245" lon="0.20659">
        <ele>43</ele>
        <time>2015-11-16T14:14:37Z</time>
      </trkpt>
      <trkpt lat="44.03253" lon="0.20666">
        <ele>43</ele>
        <time>2015-11-16T14:14:47Z</time>
      </trkpt>
      <trkpt lat="44.03262" lon="0.20671">
        <ele>43</ele>
        <time>2015-11-16T14:14:56Z</time>
      </trkpt>
      <trkpt lat="44.03271" lon="0.20676">
        <ele>39</ele>
        <time>2015-11-16T14:15:05Z</time>
      </trkpt>
      <trkpt lat="44.03277" lon="0.20687">
        <ele>39</ele>
        <time>2015-11-16T14:15:14Z</time>
      </trkpt>
      <trkpt lat="44.0328" lon="0.20699">
        <ele>39</ele>
        <time>2015-11-16T14:15:23Z</time>
      </trkpt>
      <trkpt lat="44.03281" lon="0.20712">
        <ele>39</ele>
        <time>2015-11-16T14:15:32Z</time>
      </trkpt>
      <trkpt lat="44.03284" lon="0.20725">
        <ele>39</ele>
        <time>2015-11-16T14:15:41Z</time>
      </trkpt>
      <trkpt lat="44.03287" lon="0.20738">
        <ele>39</ele>
        <time>2015-11-16T14:15:50Z</time>
      </trkpt>
      <trkpt lat="44.0329" lon="0.2075">
        <ele>39</ele>
        <time>2015-11-16T14:15:58Z</time>
      </trkpt>
      <trkpt lat="44.03294" lon="0.20763">
        <ele>39</ele>
        <time>2015-11-16T14:16:07Z</time>
      </trkpt>
      <trkpt lat="44.03299" lon="0.20774">
        <ele>39</ele>
        <time>2015-11-16T14:16:16Z</time>
      </trkpt>
      <trkpt lat="44.03304" lon="0.20785">
        <ele>34</ele>
        <time>2015-11-16T14:16:25Z</time>
      </trkpt>
      <trkpt lat="44.03309" lon="0.20797">
        <ele>34</ele>
        <time>2015-11-16T14:16:35Z</time>
      </trkpt>
      <trkpt lat="44.03313" lon="0.20808">
        <ele>34</ele>
        <time>2015-11-16T14:16:49Z</time>
      </trkpt>
      <trkpt lat="44.03315" lon="0.2082">
        <ele>34</ele>
        <time>2015-11-16T14:17:05Z</time>
      </trkpt>
      <trkpt lat="44.0332" lon="0.20832">
        <ele>34</ele>
        <time>2015-11-16T14:17:15Z</time>
      </trkpt>
      <trkpt lat="44.0332" lon="0.20845">
        <ele>34</ele>
        <time>2015-11-16T14:17:24Z</time>
      </trkpt>
      <trkpt lat="44.03319" lon="0.20858">
        <ele>29</ele>
        <time>2015-11-16T14:17:33Z</time>
      </trkpt>
      <trkpt lat="44.03318" lon="0.20872">
        <ele>29</ele>
        <time>2015-11-16T14:17:44Z</time>
      </trkpt>
      <trkpt lat="44.03317" lon="0.20885">
        <ele>29</ele>
        <time>2015-11-16T14:17:55Z</time>
      </trkpt>
      <trkpt lat="44.03317" lon="0.20898">
        <ele>29</ele>
        <time>2015-11-16T14:18:09Z</time>
      </trkpt>
      <trkpt lat="44.03317" lon="0.2091">
        <ele>29</ele>
        <time>2015-11-16T14:18:22Z</time>
      </trkpt>
      <trkpt lat="44.03316" lon="0.20923">
        <ele>29</ele>
        <time>2015-11-16T14:18:36Z</time>
      </trkpt>
      <trkpt lat="44.03317" lon="0.20935">
        <ele>25</ele>
        <time>2015-11-16T14:19:34Z</time>
      </trkpt>
      <trkpt lat="44.03315" lon="0.20949">
        <ele>25</ele>
        <time>2015-11-16T14:19:45Z</time>
      </trkpt>
      <trkpt lat="44.03313" lon="0.20962">
        <ele>25</ele>
        <time>2015-11-16T14:19:54Z</time>
      </trkpt>
      <trkpt lat="44.03312" lon="0.20975">
        <ele>25</ele>
        <time>2015-11-16T14:20:03Z</time>
      </trkpt>
      <trkpt lat="44.0331" lon="0.20989">
        <ele>25</ele>
        <time>2015-11-16T14:20:12Z</time>
      </trkpt>
      <trkpt lat="44.03308" lon="0.21001">
        <ele>25</ele>
        <time>2015-11-16T14:20:21Z</time>
      </trkpt>
      <trkpt lat="44.03306" lon="0.21014">
        <ele>25</ele>
        <time>2015-11-16T14:20:30Z</time>
      </trkpt>
      <trkpt lat="44.03311" lon="0.21026">
        <ele>25</ele>
        <time>2015-11-16T14:20:40Z</time>
      </trkpt>
      <trkpt lat="44.0332" lon="0.21029">
        <ele>25</ele>
        <time>2015-11-16T14:20:49Z</time>
      </trkpt>
      <trkpt lat="44.0333" lon="0.21033">
        <ele>25</ele>
        <time>2015-11-16T14:20:58Z</time>
      </trkpt>
      <trkpt lat="44.03339" lon="0.21035">
        <ele>25</ele>
        <time>2015-11-16T14:21:08Z</time>
      </trkpt>
      <trkpt lat="44.03349" lon="0.21036">
        <ele>25</ele>
        <time>2015-11-16T14:21:19Z</time>
      </trkpt>
      <trkpt lat="44.03358" lon="0.21035">
        <ele>21</ele>
        <time>2015-11-16T14:21:29Z</time>
      </trkpt>
      <trkpt lat="44.03368" lon="0.21033">
        <ele>21</ele>
        <time>2015-11-16T14:21:40Z</time>
      </trkpt>
      <trkpt lat="44.03377" lon="0.21033">
        <ele>21</ele>
        <time>2015-11-16T14:21:50Z</time>
      </trkpt>
      <trkpt lat="44.03387" lon="0.21035">
        <ele>21</ele>
        <time>2015-11-16T14:22:00Z</time>
      </trkpt>
      <trkpt lat="44.03397" lon="0.21036">
        <ele>21</ele>
        <time>2015-11-16T14:22:09Z</time>
      </trkpt>
      <trkpt lat="44.03407" lon="0.21037">
        <ele>21</ele>
        <time>2015-11-16T14:22:18Z</time>
      </trkpt>
      <trkpt lat="44.03416" lon="0.21036">
        <ele>21</ele>
        <time>2015-11-16T14:22:29Z</time>
      </trkpt>
      <trkpt lat="44.03426" lon="0.21035">
        <ele>21</ele>
        <time>2015-11-16T14:22:38Z</time>
      </trkpt>
      <trkpt lat="44.03436" lon="0.21036">
        <ele>21</ele>
        <time>2015-11-16T14:22:46Z</time>
      </trkpt>
      <trkpt lat="44.03446" lon="0.21038">
        <ele>21</ele>
        <time>2015-11-16T14:22:54Z</time>
      </trkpt>
      <trkpt lat="44.03456" lon="0.2104">
        <ele>21</ele>
        <time>2015-11-16T14:23:03Z</time>
      </trkpt>
      <trkpt lat="44.03465" lon="0.21039">
        <ele>21</ele>
        <time>2015-11-16T14:23:12Z</time>
      </trkpt>
      <trkpt lat="44.03475" lon="0.21037">
        <ele>21</ele>
        <time>2015-11-16T14:23:20Z</time>
      </trkpt>
      <trkpt lat="44.03485" lon="0.21035">
        <ele>21</ele>
        <time>2015-11-16T14:23:28Z</time>
      </trkpt>
      <trkpt lat="44.03495" lon="0.21034">
        <ele>21</ele>
        <time>2015-11-16T14:23:36Z</time>
      </trkpt>
      <trkpt lat="44.03504" lon="0.21033">
        <ele>20</ele>
        <time>2015-11-16T14:23:46Z</time>
      </trkpt>
      <trkpt lat="44.03514" lon="0.21035">
        <ele>20</ele>
        <time>2015-11-16T14:23:55Z</time>
      </trkpt>
      <trkpt lat="44.03524" lon="0.21034">
        <ele>20</ele>
        <time>2015-11-16T14:24:04Z</time>
      </trkpt>
      <trkpt lat="44.03533" lon="0.21033">
        <ele>20</ele>
        <time>2015-11-16T14:24:14Z</time>
      </trkpt>
      <trkpt lat="44.03542" lon="0.21036">
        <ele>20</ele>
        <time>2015-11-16T14:24:44Z</time>
      </trkpt>
      <trkpt lat="44.03551" lon="0.21041">
        <ele>20</ele>
        <time>2015-11-16T14:24:54Z</time>
      </trkpt>
      <trkpt lat="44.0356" lon="0.21045">
        <ele>20</ele>
        <time>2015-11-16T14:25:03Z</time>
      </trkpt>
      <trkpt lat="44.03569" lon="0.2105">
        <ele>20</ele>
        <time>2015-11-16T14:25:12Z</time>
      </trkpt>
      <trkpt lat="44.03578" lon="0.21056">
        <ele>20</ele>
        <time>2015-11-16T14:25:21Z</time>
      </trkpt>
      <trkpt lat="44.03587" lon="0.21063">
        <ele>20</ele>
        <time>2015-11-16T14:25:30Z</time>
      </trkpt>
      <trkpt lat="44.03594" lon="0.2107">
        <ele>20</ele>
        <time>2015-11-16T14:25:38Z</time>
      </trkpt>
      <trkpt lat="44.03603" lon="0.21077">
        <ele>20</ele>
        <time>2015-11-16T14:25:46Z</time>
      </trkpt>
      <trkpt lat="44.03611" lon="0.21083">
        <ele>20</ele>
        <time>2015-11-16T14:25:54Z</time>
      </trkpt>
      <trkpt lat="44.03621" lon="0.21086">
        <ele>20</ele>
        <time>2015-11-16T14:26:02Z</time>
      </trkpt>
      <trkpt lat="44.03631" lon="0.21089">
        <ele>20</ele>
        <time>2015-11-16T14:26:10Z</time>
      </trkpt>
      <trkpt lat="44.0364" lon="0.2109">
        <ele>20</ele>
        <time>2015-11-16T14:26:18Z</time>
      </trkpt>
      <trkpt lat="44.0365" lon="0.21091">
        <ele>20</ele>
        <time>2015-11-16T14:26:26Z</time>
      </trkpt>
      <trkpt lat="44.03659" lon="0.21091">
        <ele>20</ele>
        <time>2015-11-16T14:26:35Z</time>
      </trkpt>
      <trkpt lat="44.03669" lon="0.21091">
        <ele>20</ele>
        <time>2015-11-16T14:26:44Z</time>
      </trkpt>
      <trkpt lat="44.03679" lon="0.21092">
        <ele>20</ele>
        <time>2015-11-16T14:26:53Z</time>
      </trkpt>
      <trkpt lat="44.03688" lon="0.21094">
        <ele>20</ele>
        <time>2015-11-16T14:27:01Z</time>
      </trkpt>
      <trkpt lat="44.03697" lon="0.21095">
        <ele>20</ele>
        <time>2015-11-16T14:27:09Z</time>
      </trkpt>
      <trkpt lat="44.03707" lon="0.21096">
        <ele>20</ele>
        <time>2015-11-16T14:27:18Z</time>
      </trkpt>
      <trkpt lat="44.03717" lon="0.21098">
        <ele>20</ele>
        <time>2015-11-16T14:27:27Z</time>
      </trkpt>
      <trkpt lat="44.03726" lon="0.21099">
        <ele>20</ele>
        <time>2015-11-16T14:27:35Z</time>
      </trkpt>
      <trkpt lat="44.03735" lon="0.21099">
        <ele>20</ele>
        <time>2015-11-16T14:27:43Z</time>
      </trkpt>
      <trkpt lat="44.03745" lon="0.21099">
        <ele>25</ele>
        <time>2015-11-16T14:27:52Z</time>
      </trkpt>
      <trkpt lat="44.03754" lon="0.21101">
        <ele>25</ele>
        <time>2015-11-16T14:28:00Z</time>
      </trkpt>
      <trkpt lat="44.03763" lon="0.21102">
        <ele>25</ele>
        <time>2015-11-16T14:28:09Z</time>
      </trkpt>
      <trkpt lat="44.03773" lon="0.21103">
        <ele>25</ele>
        <time>2015-11-16T14:28:18Z</time>
      </trkpt>
      <trkpt lat="44.03783" lon="0.21103">
        <ele>25</ele>
        <time>2015-11-16T14:28:27Z</time>
      </trkpt>
      <trkpt lat="44.03791" lon="0.21098">
        <ele>25</ele>
        <time>2015-11-16T14:28:35Z</time>
      </trkpt>
      <trkpt lat="44.03798" lon="0.21089">
        <ele>25</ele>
        <time>2015-11-16T14:28:43Z</time>
      </trkpt>
      <trkpt lat="44.03804" lon="0.21079">
        <ele>29</ele>
        <time>2015-11-16T14:28:51Z</time>
      </trkpt>
      <trkpt lat="44.0381" lon="0.21068">
        <ele>29</ele>
        <time>2015-11-16T14:29:00Z</time>
      </trkpt>
      <trkpt lat="44.03816" lon="0.21058">
        <ele>29</ele>
        <time>2015-11-16T14:29:08Z</time>
      </trkpt>
      <trkpt lat="44.03822" lon="0.21048">
        <ele>29</ele>
        <time>2015-11-16T14:29:17Z</time>
      </trkpt>
      <trkpt lat="44.03829" lon="0.21039">
        <ele>29</ele>
        <time>2015-11-16T14:29:26Z</time>
      </trkpt>
      <trkpt lat="44.03838" lon="0.21036">
        <ele>29</ele>
        <time>2015-11-16T14:29:35Z</time>
      </trkpt>
      <trkpt lat="44.03846" lon="0.21029">
        <ele>29</ele>
        <time>2015-11-16T14:29:44Z</time>
      </trkpt>
      <trkpt lat="44.03855" lon="0.21022">
        <ele>29</ele>
        <time>2015-11-16T14:29:53Z</time>
      </trkpt>
      <trkpt lat="44.03862" lon="0.21014">
        <ele>29</ele>
        <time>2015-11-16T14:30:01Z</time>
      </trkpt>
      <trkpt lat="44.03867" lon="0.21002">
        <ele>29</ele>
        <time>2015-11-16T14:30:10Z</time>
      </trkpt>
      <trkpt lat="44.03868" lon="0.2099">
        <ele>29</ele>
        <time>2015-11-16T14:30:19Z</time>
      </trkpt>
      <trkpt lat="44.03865" lon="0.20977">
        <ele>29</ele>
        <time>2015-11-16T14:30:29Z</time>
      </trkpt>
      <trkpt lat="44.0386" lon="0.20965">
        <ele>29</ele>
        <time>2015-11-16T14:30:38Z</time>
      </trkpt>
      <trkpt lat="44.03856" lon="0.20954">
        <ele>29</ele>
        <time>2015-11-16T14:30:47Z</time>
      </trkpt>
      <trkpt lat="44.03852" lon="0.20942">
        <ele>29</ele>
        <time>2015-11-16T14:30:58Z</time>
      </trkpt>
      <trkpt lat="44.03847" lon="0.2093">
        <ele>29</ele>
        <time>2015-11-16T14:31:07Z</time>
      </trkpt>
      <trkpt lat="44.03842" lon="0.20918">
        <ele>29</ele>
        <time>2015-11-16T14:31:16Z</time>
      </trkpt>
      <trkpt lat="44.03836" lon="0.20907">
        <ele>29</ele>
        <time>2015-11-16T14:31:26Z</time>
      </trkpt>
      <trkpt lat="44.03831" lon="0.20896">
        <ele>29</ele>
        <time>2015-11-16T14:31:35Z</time>
      </trkpt>
      <trkpt lat="44.03825" lon="0.20886">
        <ele>31</ele>
        <time>2015-11-16T14:31:55Z</time>
      </trkpt>
      <trkpt lat="44.03819" lon="0.20876">
        <ele>31</ele>
        <time>2015-11-16T14:32:03Z</time>
      </trkpt>
      <trkpt lat="44.03812" lon="0.20868">
        <ele>31</ele>
        <time>2015-11-16T14:32:11Z</time>
      </trkpt>
      <trkpt lat="44.03804" lon="0.20861">
        <ele>31</ele>
        <time>2015-11-16T14:32:19Z</time>
      </trkpt>
      <trkpt lat="44.03797" lon="0.20854">
        <ele>31</ele>
        <time>2015-11-16T14:32:27Z</time>
      </trkpt>
      <trkpt lat="44.03789" lon="0.20847">
        <ele>31</ele>
        <time>2015-11-16T14:32:36Z</time>
      </trkpt>
      <trkpt lat="44.03781" lon="0.20839">
        <ele>31</ele>
        <time>2015-11-16T14:32:45Z</time>
      </trkpt>
      <trkpt lat="44.03774" lon="0.2083">
        <ele>31</ele>
        <time>2015-11-16T14:32:54Z</time>
      </trkpt>
      <trkpt lat="44.03767" lon="0.2082">
        <ele>31</ele>
        <time>2015-11-16T14:33:03Z</time>
      </trkpt>
      <trkpt lat="44.03761" lon="0.2081">
        <ele>31</ele>
        <time>2015-11-16T14:33:11Z</time>
      </trkpt>
      <trkpt lat="44.03756" lon="0.20798">
        <ele>35</ele>
        <time>2015-11-16T14:33:26Z</time>
      </trkpt>
      <trkpt lat="44.03752" lon="0.20787">
        <ele>35</ele>
        <time>2015-11-16T14:33:35Z</time>
      </trkpt>
      <trkpt lat="44.03747" lon="0.20774">
        <ele>35</ele>
        <time>2015-11-16T14:33:44Z</time>
      </trkpt>
      <trkpt lat="44.03743" lon="0.20762">
        <ele>35</ele>
        <time>2015-11-16T14:33:54Z</time>
      </trkpt>
      <trkpt lat="44.03738" lon="0.2075">
        <ele>35</ele>
        <time>2015-11-16T14:34:03Z</time>
      </trkpt>
      <trkpt lat="44.03735" lon="0.20738">
        <ele>35</ele>
        <time>2015-11-16T14:34:11Z</time>
      </trkpt>
      <trkpt lat="44.03732" lon="0.20726">
        <ele>35</ele>
        <time>2015-11-16T14:34:19Z</time>
      </trkpt>
      <trkpt lat="44.0373" lon="0.20714">
        <ele>35</ele>
        <time>2015-11-16T14:34:27Z</time>
      </trkpt>
      <trkpt lat="44.03729" lon="0.20701">
        <ele>39</ele>
        <time>2015-11-16T14:34:35Z</time>
      </trkpt>
      <trkpt lat="44.03728" lon="0.20688">
        <ele>39</ele>
        <time>2015-11-16T14:34:43Z</time>
      </trkpt>
      <trkpt lat="44.03728" lon="0.20675">
        <ele>39</ele>
        <time>2015-11-16T14:34:51Z</time>
      </trkpt>
      <trkpt lat="44.03728" lon="0.20663">
        <ele>39</ele>
        <time>2015-11-16T14:34:59Z</time>
      </trkpt>
      <trkpt lat="44.03728" lon="0.20649">
        <ele>39</ele>
        <time>2015-11-16T14:35:08Z</time>
      </trkpt>
      <trkpt lat="44.03728" lon="0.20636">
        <ele>39</ele>
        <time>2015-11-16T14:35:16Z</time>
      </trkpt>
      <trkpt lat="44.03727" lon="0.20622">
        <ele>39</ele>
        <time>2015-11-16T14:35:25Z</time>
      </trkpt>
      <trkpt lat="44.03726" lon="0.20609">
        <ele>39</ele>
        <time>2015-11-16T14:35:34Z</time>
      </trkpt>
      <trkpt lat="44.03725" lon="0.20596">
        <ele>39</ele>
        <time>2015-11-16T14:35:43Z</time>
      </trkpt>
      <trkpt lat="44.03722" lon="0.20582">
        <ele>44</ele>
        <time>2015-11-16T14:35:52Z</time>
      </trkpt>
      <trkpt lat="44.0372" lon="0.2057">
        <ele>44</ele>
        <time>2015-11-16T14:36:01Z</time>
      </trkpt>
      <trkpt lat="44.03718" lon="0.20558">
        <ele>44</ele>
        <time>2015-11-16T14:36:10Z</time>
      </trkpt>
      <trkpt lat="44.03716" lon="0.20545">
        <ele>44</ele>
        <time>2015-11-16T14:36:19Z</time>
      </trkpt>
      <trkpt lat="44.0371" lon="0.20534">
        <ele>44</ele>
        <time>2015-11-16T14:36:32Z</time>
      </trkpt>
      <trkpt lat="44.03703" lon="0.20525">
        <ele>48</ele>
        <time>2015-11-16T14:36:45Z</time>
      </trkpt>
      <trkpt lat="44.03698" lon="0.20514">
        <ele>48</ele>
        <time>2015-11-16T14:36:56Z</time>
      </trkpt>
      <trkpt lat="44.03701" lon="0.20502">
        <ele>48</ele>
        <time>2015-11-16T14:37:05Z</time>
      </trkpt>
      <trkpt lat="44.03704" lon="0.20489">
        <ele>48</ele>
        <time>2015-11-16T14:37:14Z</time>
      </trkpt>
      <trkpt lat="44.03708" lon="0.20477">
        <ele>48</ele>
        <time>2015-11-16T14:37:22Z</time>
      </trkpt>
      <trkpt lat="44.0371" lon="0.20465">
        <ele>48</ele>
        <time>2015-11-16T14:37:30Z</time>
      </trkpt>
      <trkpt lat="44.03713" lon="0.20452">
        <ele>48</ele>
        <time>2015-11-16T14:37:39Z</time>
      </trkpt>
      <trkpt lat="44.03715" lon="0.20439">
        <ele>48</ele>
        <time>2015-11-16T14:37:48Z</time>
      </trkpt>
      <trkpt lat="44.03717" lon="0.20426">
        <ele>48</ele>
        <time>2015-11-16T14:37:57Z</time>
      </trkpt>
      <trkpt lat="44.0372" lon="0.20414">
        <ele>48</ele>
        <time>2015-11-16T14:38:07Z</time>
      </trkpt>
      <trkpt lat="44.03723" lon="0.20402">
        <ele>48</ele>
        <time>2015-11-16T14:38:29Z</time>
      </trkpt>
      <trkpt lat="44.03725" lon="0.20389">
        <ele>48</ele>
        <time>2015-11-16T14:38:42Z</time>
      </trkpt>
      <trkpt lat="44.03726" lon="0.20377">
        <ele>48</ele>
        <time>2015-11-16T14:38:54Z</time>
      </trkpt>
      <trkpt lat="44.03728" lon="0.20364">
        <ele>48</ele>
        <time>2015-11-16T14:39:03Z</time>
      </trkpt>
      <trkpt lat="44.0373" lon="0.20351">
        <ele>48</ele>
        <time>2015-11-16T14:39:20Z</time>
      </trkpt>
      <trkpt lat="44.03734" lon="0.20339">
        <ele>48</ele>
        <time>2015-11-16T14:39:30Z</time>
      </trkpt>
      <trkpt lat="44.03737" lon="0.20327">
        <ele>48</ele>
        <time>2015-11-16T14:39:39Z</time>
      </trkpt>
      <trkpt lat="44.0374" lon="0.20315">
        <ele>48</ele>
        <time>2015-11-16T14:39:49Z</time>
      </trkpt>
      <trkpt lat="44.03744" lon="0.20303">
        <ele>48</ele>
        <time>2015-11-16T14:39:58Z</time>
      </trkpt>
      <trkpt lat="44.03746" lon="0.2029">
        <ele>48</ele>
        <time>2015-11-16T14:40:08Z</time>
      </trkpt>
      <trkpt lat="44.03748" lon="0.20276">
        <ele>48</ele>
        <time>2015-11-16T14:40:19Z</time>
      </trkpt>
      <trkpt lat="44.03751" lon="0.20264">
        <ele>48</ele>
        <time>2015-11-16T14:40:40Z</time>
      </trkpt>
      <trkpt lat="44.03754" lon="0.20252">
        <ele>44</ele>
        <time>2015-11-16T14:40:53Z</time>
      </trkpt>
      <trkpt lat="44.03757" lon="0.2024">
        <ele>44</ele>
        <time>2015-11-16T14:41:10Z</time>
      </trkpt>
      <trkpt lat="44.03761" lon="0.20228">
        <ele>44</ele>
        <time>2015-11-16T14:41:19Z</time>
      </trkpt>
      <trkpt lat="44.03764" lon="0.20215">
        <ele>44</ele>
        <time>2015-11-16T14:41:28Z</time>
      </trkpt>
      <trkpt lat="44.03767" lon="0.20202">
        <ele>44</ele>
        <time>2015-11-16T14:41:37Z</time>
      </trkpt>
      <trkpt lat="44.0377" lon="0.2019">
        <ele>44</ele>
        <time>2015-11-16T14:41:45Z</time>
      </trkpt>
      <trkpt lat="44.03773" lon="0.20178">
        <ele>39</ele>
        <time>2015-11-16T14:41:53Z</time>
      </trkpt>
      <trkpt lat="44.03775" lon="0.20165">
        <ele>39</ele>
        <time>2015-11-16T14:42:02Z</time>
      </trkpt>
      <trkpt lat="44.03778" lon="0.20152">
        <ele>39</ele>
        <time>2015-11-16T14:42:11Z</time>
      </trkpt>
      <trkpt lat="44.0378" lon="0.20138">
        <ele>39</ele>
        <time>2015-11-16T14:42:20Z</time>
      </trkpt>
      <trkpt lat="44.03783" lon="0.20125">
        <ele>34</ele>
        <time>2015-11-16T14:42:29Z</time>
      </trkpt>
      <trkpt lat="44.03785" lon="0.20113">
        <ele>34</ele>
        <time>2015-11-16T14:42:37Z</time>
      </trkpt>
      <trkpt lat="44.03788" lon="0.201">
        <ele>34</ele>
        <time>2015-11-16T14:42:46Z</time>
      </trkpt>
      <trkpt lat="44.0379" lon="0.20087">
        <ele>34</ele>
        <time>2015-11-16T14:42:55Z</time>
      </trkpt>
      <trkpt lat="44.03793" lon="0.20073">
        <ele>34</ele>
        <time>2015-11-16T14:43:05Z</time>
      </trkpt>
      <trkpt lat="44.03795" lon="0.20061">
        <ele>30</ele>
        <time>2015-11-16T14:43:15Z</time>
      </trkpt>
      <trkpt lat="44.03798" lon="0.20047">
        <ele>30</ele>
        <time>2015-11-16T14:43:24Z</time>
      </trkpt>
      <trkpt lat="44.038" lon="0.20035">
        <ele>30</ele>
        <time>2015-11-16T14:43:32Z</time>
      </trkpt>
      <trkpt lat="44.03803" lon="0.20021">
        <ele>30</ele>
        <time>2015-11-16T14:43:41Z</time>
      </trkpt>
      <trkpt lat="44.03806" lon="0.20008">
        <ele>30</ele>
        <time>2015-11-16T14:43:50Z</time>
      </trkpt>
      <trkpt lat="44.03809" lon="0.19996">
        <ele>26</ele>
        <time>2015-11-16T14:44:44Z</time>
      </trkpt>
      <trkpt lat="44.03811" lon="0.19984">
        <ele>26</ele>
        <time>2015-11-16T14:44:53Z</time>
      </trkpt>
      <trkpt lat="44.03814" lon="0.19971">
        <ele>22</ele>
        <time>2015-11-16T14:45:02Z</time>
      </trkpt>
      <trkpt lat="44.03817" lon="0.19959">
        <ele>22</ele>
        <time>2015-11-16T14:45:12Z</time>
      </trkpt>
      <trkpt lat="44.0382" lon="0.19947">
        <ele>22</ele>
        <time>2015-11-16T14:45:30Z</time>
      </trkpt>
      <trkpt lat="44.03822" lon="0.19934">
        <ele>18</ele>
        <time>2015-11-16T14:45:43Z</time>
      </trkpt>
      <trkpt lat="44.03824" lon="0.19921">
        <ele>18</ele>
        <time>2015-11-16T14:45:56Z</time>
      </trkpt>
      <trkpt lat="44.03826" lon="0.19908">
        <ele>18</ele>
        <time>2015-11-16T14:46:13Z</time>
      </trkpt>
      <trkpt lat="44.03827" lon="0.19895">
        <ele>12</ele>
        <time>2015-11-16T14:46:29Z</time>
      </trkpt>
      <trkpt lat="44.0383" lon="0.19883">
        <ele>12</ele>
        <time>2015-11-16T14:46:45Z</time>
      </trkpt>
      <trkpt lat="44.03835" lon="0.19872">
        <ele>6</ele>
        <time>2015-11-16T14:46:56Z</time>
      </trkpt>
      <trkpt lat="44.03838" lon="0.19859">
        <ele>6</ele>
        <time>2015-11-16T14:47:11Z</time>
      </trkpt>
      <trkpt lat="44.03839" lon="0.19846">
        <ele>6</ele>
        <time>2015-11-16T14:47:25Z</time>
      </trkpt>
      <trkpt lat="44.03842" lon="0.19834">
        <ele>6</ele>
        <time>2015-11-16T14:47:38Z</time>
      </trkpt>
      <trkpt lat="44.03848" lon="0.19823">
        <ele>6</ele>
        <time>2015-11-16T14:47:51Z</time>
      </trkpt>
      <trkpt lat="44.03851" lon="0.19811">
        <ele>83.9</ele>
        <time>2015-11-16T14:48:14Z</time>
      </trkpt>
      <trkpt lat="44.03856" lon="0.198">
        <ele>-4</ele>
        <time>2015-11-16T14:48:32Z</time>
      </trkpt>
      <trkpt lat="44.03862" lon="0.19791">
        <ele>-4</ele>
        <time>2015-11-16T14:48:47Z</time>
      </trkpt>
      <trkpt lat="44.03867" lon="0.1978">
        <ele>-8</ele>
        <time>2015-11-16T14:49:04Z</time>
      </trkpt>
      <trkpt lat="44.03872" lon="0.19768">
        <ele>-8</ele>
        <time>2015-11-16T14:49:17Z</time>
      </trkpt>
      <trkpt lat="44.03875" lon="0.19756">
        <ele>-8</ele>
        <time>2015-11-16T14:49:27Z</time>
      </trkpt>
      <trkpt lat="44.03879" lon="0.19744">
        <ele>-12</ele>
        <time>2015-11-16T14:49:36Z</time>
      </trkpt>
      <trkpt lat="44.03888" lon="0.19745">
        <ele>-12</ele>
        <time>2015-11-16T14:49:50Z</time>
      </trkpt>
      <trkpt lat="44.03896" lon="0.19751">
        <ele>-12</ele>
        <time>2015-11-16T14:50:07Z</time>
      </trkpt>
      <trkpt lat="44.03901" lon="0.19763">
        <ele>-12</ele>
        <time>2015-11-16T14:50:22Z</time>
      </trkpt>
      <trkpt lat="44.03905" lon="0.19775">
        <ele>-12</ele>
        <time>2015-11-16T14:50:32Z</time>
      </trkpt>
      <trkpt lat="44.03908" lon="0.19788">
        <ele>-12</ele>
        <time>2015-11-16T14:50:41Z</time>
      </trkpt>
      <trkpt lat="44.03911" lon="0.19801">
        <ele>-12</ele>
        <time>2015-11-16T14:50:49Z</time>
      </trkpt>
      <trkpt lat="44.03915" lon="0.19813">
        <ele>-12</ele>
        <time>2015-11-16T14:50:56Z</time>
      </trkpt>
      <trkpt lat="44.03917" lon="0.19825">
        <ele>-12</ele>
        <time>2015-11-16T14:51:08Z</time>
      </trkpt>
      <trkpt lat="44.0392" lon="0.19839">
        <ele>-12</ele>
        <time>2015-11-16T14:51:16Z</time>
      </trkpt>
      <trkpt lat="44.03923" lon="0.19851">
        <ele>-12</ele>
        <time>2015-11-16T14:51:24Z</time>
      </trkpt>
      <trkpt lat="44.03927" lon="0.19864">
        <ele>-12</ele>
        <time>2015-11-16T14:51:32Z</time>
      </trkpt>
      <trkpt lat="44.0393" lon="0.19878">
        <ele>-12</ele>
        <time>2015-11-16T14:51:40Z</time>
      </trkpt>
      <trkpt lat="44.03934" lon="0.1989">
        <ele>-12</ele>
        <time>2015-11-16T14:51:49Z</time>
      </trkpt>
      <trkpt lat="44.03938" lon="0.19902">
        <ele>-12</ele>
        <time>2015-11-16T14:52:02Z</time>
      </trkpt>
      <trkpt lat="44.03942" lon="0.19915">
        <ele>-12</ele>
        <time>2015-11-16T14:52:11Z</time>
      </trkpt>
      <trkpt lat="44.03946" lon="0.19927">
        <ele>-12</ele>
        <time>2015-11-16T14:52:19Z</time>
      </trkpt>
      <trkpt lat="44.0395" lon="0.19939">
        <ele>-12</ele>
        <time>2015-11-16T14:52:27Z</time>
      </trkpt>
      <trkpt lat="44.03954" lon="0.19952">
        <ele>-12</ele>
        <time>2015-11-16T14:52:35Z</time>
      </trkpt>
      <trkpt lat="44.03958" lon="0.19964">
        <ele>-15</ele>
        <time>2015-11-16T14:52:43Z</time>
      </trkpt>
      <trkpt lat="44.03962" lon="0.19976">
        <ele>-15</ele>
        <time>2015-11-16T14:52:51Z</time>
      </trkpt>
      <trkpt lat="44.03967" lon="0.19987">
        <ele>-15</ele>
        <time>2015-11-16T14:53:00Z</time>
      </trkpt>
      <trkpt lat="44.03972" lon="0.19999">
        <ele>-15</ele>
        <time>2015-11-16T14:53:09Z</time>
      </trkpt>
      <trkpt lat="44.03975" lon="0.20011">
        <ele>-15</ele>
        <time>2015-11-16T14:53:17Z</time>
      </trkpt>
      <trkpt lat="44.03978" lon="0.20024">
        <ele>-15</ele>
        <time>2015-11-16T14:53:25Z</time>
      </trkpt>
      <trkpt lat="44.03983" lon="0.20037">
        <ele>-15</ele>
        <time>2015-11-16T14:53:33Z</time>
      </trkpt>
      <trkpt lat="44.03987" lon="0.20048">
        <ele>-15</ele>
        <time>2015-11-16T14:53:41Z</time>
      </trkpt>
      <trkpt lat="44.03991" lon="0.2006">
        <ele>-15</ele>
        <time>2015-11-16T14:53:49Z</time>
      </trkpt>
      <trkpt lat="44.03995" lon="0.20073">
        <ele>-15</ele>
        <time>2015-11-16T14:53:57Z</time>
      </trkpt>
      <trkpt lat="44.03999" lon="0.20085">
        <ele>-15</ele>
        <time>2015-11-16T14:54:06Z</time>
      </trkpt>
      <trkpt lat="44.04003" lon="0.20097">
        <ele>-15</ele>
        <time>2015-11-16T14:54:15Z</time>
      </trkpt>
      <trkpt lat="44.04007" lon="0.2011">
        <ele>-15</ele>
        <time>2015-11-16T14:54:24Z</time>
      </trkpt>
      <trkpt lat="44.04011" lon="0.20122">
        <ele>-15</ele>
        <time>2015-11-16T14:54:32Z</time>
      </trkpt>
      <trkpt lat="44.04016" lon="0.20134">
        <ele>-15</ele>
        <time>2015-11-16T14:54:40Z</time>
      </trkpt>
      <trkpt lat="44.0402" lon="0.20145">
        <ele>-15</ele>
        <time>2015-11-16T14:54:48Z</time>
      </trkpt>
      <trkpt lat="44.04025" lon="0.20157">
        <ele>-15</ele>
        <time>2015-11-16T14:54:56Z</time>
      </trkpt>
      <trkpt lat="44.04028" lon="0.20168">
        <ele>-15</ele>
        <time>2015-11-16T14:55:04Z</time>
      </trkpt>
      <trkpt lat="44.04033" lon="0.2018">
        <ele>-15</ele>
        <time>2015-11-16T14:55:12Z</time>
      </trkpt>
      <trkpt lat="44.04038" lon="0.20191">
        <ele>-15</ele>
        <time>2015-11-16T14:55:20Z</time>
      </trkpt>
      <trkpt lat="44.04042" lon="0.20203">
        <ele>-15</ele>
        <time>2015-11-16T14:55:28Z</time>
      </trkpt>
      <trkpt lat="44.04047" lon="0.20215">
        <ele>-15</ele>
        <time>2015-11-16T14:55:37Z</time>
      </trkpt>
      <trkpt lat="44.04052" lon="0.20227">
        <ele>-15</ele>
        <time>2015-11-16T14:55:46Z</time>
      </trkpt>
      <trkpt lat="44.04057" lon="0.20237">
        <ele>-15</ele>
        <time>2015-11-16T14:55:54Z</time>
      </trkpt>
      <trkpt lat="44.04062" lon="0.20248">
        <ele>-15</ele>
        <time>2015-11-16T14:56:03Z</time>
      </trkpt>
      <trkpt lat="44.04067" lon="0.2026">
        <ele>-15</ele>
        <time>2015-11-16T14:56:11Z</time>
      </trkpt>
      <trkpt lat="44.04072" lon="0.20272">
        <ele>-15</ele>
        <time>2015-11-16T14:56:18Z</time>
      </trkpt>
      <trkpt lat="44.04076" lon="0.20285">
        <ele>-15</ele>
        <time>2015-11-16T14:56:25Z</time>
      </trkpt>
      <trkpt lat="44.04079" lon="0.20297">
        <ele>-15</ele>
        <time>2015-11-16T14:56:32Z</time>
      </trkpt>
      <trkpt lat="44.04084" lon="0.2031">
        <ele>-15</ele>
        <time>2015-11-16T14:56:40Z</time>
      </trkpt>
      <trkpt lat="44.04088" lon="0.20321">
        <ele>-15</ele>
        <time>2015-11-16T14:56:48Z</time>
      </trkpt>
      <trkpt lat="44.04093" lon="0.20333">
        <ele>-14</ele>
        <time>2015-11-16T14:56:56Z</time>
      </trkpt>
      <trkpt lat="44.04097" lon="0.20346">
        <ele>-14</ele>
        <time>2015-11-16T14:57:03Z</time>
      </trkpt>
      <trkpt lat="44.04101" lon="0.20358">
        <ele>-14</ele>
        <time>2015-11-16T14:57:11Z</time>
      </trkpt>
      <trkpt lat="44.04105" lon="0.20369">
        <ele>-14</ele>
        <time>2015-11-16T14:57:19Z</time>
      </trkpt>
      <trkpt lat="44.0411" lon="0.2038">
        <ele>-14</ele>
        <time>2015-11-16T14:57:27Z</time>
      </trkpt>
      <trkpt lat="44.04115" lon="0.2039">
        <ele>-14</ele>
        <time>2015-11-16T14:57:35Z</time>
      </trkpt>
      <trkpt lat="44.04121" lon="0.20401">
        <ele>-14</ele>
        <time>2015-11-16T14:57:44Z</time>
      </trkpt>
      <trkpt lat="44.04126" lon="0.20412">
        <ele>-14</ele>
        <time>2015-11-16T14:57:52Z</time>
      </trkpt>
      <trkpt lat="44.04131" lon="0.20423">
        <ele>-14</ele>
        <time>2015-11-16T14:58:01Z</time>
      </trkpt>
      <trkpt lat="44.04137" lon="0.20434">
        <ele>-14</ele>
        <time>2015-11-16T14:58:10Z</time>
      </trkpt>
      <trkpt lat="44.04142" lon="0.20445">
        <ele>-14</ele>
        <time>2015-11-16T14:58:17Z</time>
      </trkpt>
      <trkpt lat="44.04147" lon="0.20457">
        <ele>-14</ele>
        <time>2015-11-16T14:58:24Z</time>
      </trkpt>
      <trkpt lat="44.04152" lon="0.20468">
        <ele>-14</ele>
        <time>2015-11-16T14:58:32Z</time>
      </trkpt>
      <trkpt lat="44.04158" lon="0.20478">
        <ele>-14</ele>
        <time>2015-11-16T14:58:39Z</time>
      </trkpt>
      <trkpt lat="44.04163" lon="0.2049">
        <ele>-14</ele>
        <time>2015-11-16T14:58:47Z</time>
      </trkpt>
      <trkpt lat="44.04169" lon="0.20501">
        <ele>-14</ele>
        <time>2015-11-16T14:58:55Z</time>
      </trkpt>
      <trkpt lat="44.04174" lon="0.20513">
        <ele>-14</ele>
        <time>2015-11-16T14:59:03Z</time>
      </trkpt>
      <trkpt lat="44.04179" lon="0.20524">
        <ele>-14</ele>
        <time>2015-11-16T14:59:11Z</time>
      </trkpt>
      <trkpt lat="44.04185" lon="0.20534">
        <ele>-14</ele>
        <time>2015-11-16T14:59:18Z</time>
      </trkpt>
      <trkpt lat="44.04191" lon="0.20545">
        <ele>-14</ele>
        <time>2015-11-16T14:59:26Z</time>
      </trkpt>
      <trkpt lat="44.04197" lon="0.20555">
        <ele>-14</ele>
        <time>2015-11-16T14:59:34Z</time>
      </trkpt>
      <trkpt lat="44.04204" lon="0.20564">
        <ele>-14</ele>
        <time>2015-11-16T14:59:43Z</time>
      </trkpt>
      <trkpt lat="44.0421" lon="0.20574">
        <ele>-14</ele>
        <time>2015-11-16T14:59:52Z</time>
      </trkpt>
      <trkpt lat="44.04216" lon="0.20585">
        <ele>-14</ele>
        <time>2015-11-16T15:00:01Z</time>
      </trkpt>
      <trkpt lat="44.0422" lon="0.20598">
        <ele>-14</ele>
        <time>2015-11-16T15:00:09Z</time>
      </trkpt>
      <trkpt lat="44.04226" lon="0.20608">
        <ele>-14</ele>
        <time>2015-11-16T15:00:17Z</time>
      </trkpt>
      <trkpt lat="44.0423" lon="0.20619">
        <ele>-14</ele>
        <time>2015-11-16T15:00:25Z</time>
      </trkpt>
      <trkpt lat="44.04236" lon="0.2063">
        <ele>-14</ele>
        <time>2015-11-16T15:00:35Z</time>
      </trkpt>
      <trkpt lat="44.0424" lon="0.20642">
        <ele>-14</ele>
        <time>2015-11-16T15:00:43Z</time>
      </trkpt>
      <trkpt lat="44.04244" lon="0.20653">
        <ele>-14</ele>
        <time>2015-11-16T15:00:51Z</time>
      </trkpt>
      <trkpt lat="44.04249" lon="0.20666">
        <ele>-14</ele>
        <time>2015-11-16T15:00:59Z</time>
      </trkpt>
      <trkpt lat="44.04252" lon="0.20679">
        <ele>-14</ele>
        <time>2015-11-16T15:01:06Z</time>
      </trkpt>
      <trkpt lat="44.04254" lon="0.20693">
        <ele>-14</ele>
        <time>2015-11-16T15:01:13Z</time>
      </trkpt>
      <trkpt lat="44.04256" lon="0.20706">
        <ele>-15</ele>
        <time>2015-11-16T15:01:20Z</time>
      </trkpt>
      <trkpt lat="44.0426" lon="0.20719">
        <ele>-15</ele>
        <time>2015-11-16T15:01:28Z</time>
      </trkpt>
      <trkpt lat="44.04263" lon="0.20731">
        <ele>-15</ele>
        <time>2015-11-16T15:01:35Z</time>
      </trkpt>
      <trkpt lat="44.04265" lon="0.20743">
        <ele>-15</ele>
        <time>2015-11-16T15:01:42Z</time>
      </trkpt>
      <trkpt lat="44.04268" lon="0.20755">
        <ele>-15</ele>
        <time>2015-11-16T15:01:49Z</time>
      </trkpt>
      <trkpt lat="44.04271" lon="0.20769">
        <ele>-15</ele>
        <time>2015-11-16T15:01:57Z</time>
      </trkpt>
      <trkpt lat="44.04275" lon="0.20782">
        <ele>-15</ele>
        <time>2015-11-16T15:02:05Z</time>
      </trkpt>
      <trkpt lat="44.04278" lon="0.20794">
        <ele>-15</ele>
        <time>2015-11-16T15:02:13Z</time>
      </trkpt>
      <trkpt lat="44.04281" lon="0.20806">
        <ele>-15</ele>
        <time>2015-11-16T15:02:21Z</time>
      </trkpt>
      <trkpt lat="44.04284" lon="0.20818">
        <ele>-15</ele>
        <time>2015-11-16T15:02:29Z</time>
      </trkpt>
      <trkpt lat="44.04286" lon="0.2083">
        <ele>-15</ele>
        <time>2015-11-16T15:02:37Z</time>
      </trkpt>
      <trkpt lat="44.04289" lon="0.20842">
        <ele>-15</ele>
        <time>2015-11-16T15:02:45Z</time>
      </trkpt>
      <trkpt lat="44.04291" lon="0.20855">
        <ele>-15</ele>
        <time>2015-11-16T15:02:53Z</time>
      </trkpt>
      <trkpt lat="44.04293" lon="0.20868">
        <ele>-15</ele>
        <time>2015-11-16T15:03:01Z</time>
      </trkpt>
      <trkpt lat="44.04295" lon="0.20881">
        <ele>-15</ele>
        <time>2015-11-16T15:03:10Z</time>
      </trkpt>
      <trkpt lat="44.04296" lon="0.20894">
        <ele>-15</ele>
        <time>2015-11-16T15:03:18Z</time>
      </trkpt>
      <trkpt lat="44.04298" lon="0.20907">
        <ele>-15</ele>
        <time>2015-11-16T15:03:26Z</time>
      </trkpt>
      <trkpt lat="44.043" lon="0.2092">
        <ele>-15</ele>
        <time>2015-11-16T15:03:33Z</time>
      </trkpt>
      <trkpt lat="44.04303" lon="0.20932">
        <ele>-15</ele>
        <time>2015-11-16T15:03:40Z</time>
      </trkpt>
      <trkpt lat="44.04306" lon="0.20945">
        <ele>-15</ele>
        <time>2015-11-16T15:03:49Z</time>
      </trkpt>
      <trkpt lat="44.04308" lon="0.20958">
        <ele>-15</ele>
        <time>2015-11-16T15:03:57Z</time>
      </trkpt>
      <trkpt lat="44.04311" lon="0.20972">
        <ele>-15</ele>
        <time>2015-11-16T15:04:05Z</time>
      </trkpt>
      <trkpt lat="44.04314" lon="0.20985">
        <ele>-15</ele>
        <time>2015-11-16T15:04:13Z</time>
      </trkpt>
      <trkpt lat="44.04316" lon="0.20998">
        <ele>-15</ele>
        <time>2015-11-16T15:04:21Z</time>
      </trkpt>
      <trkpt lat="44.04318" lon="0.21012">
        <ele>-15</ele>
        <time>2015-11-16T15:04:29Z</time>
      </trkpt>
      <trkpt lat="44.0432" lon="0.21024">
        <ele>-15</ele>
        <time>2015-11-16T15:04:36Z</time>
      </trkpt>
      <trkpt lat="44.04322" lon="0.21037">
        <ele>-15</ele>
        <time>2015-11-16T15:04:43Z</time>
      </trkpt>
      <trkpt lat="44.04324" lon="0.2105">
        <ele>-15</ele>
        <time>2015-11-16T15:04:51Z</time>
      </trkpt>
      <trkpt lat="44.04325" lon="0.21064">
        <ele>-15</ele>
        <time>2015-11-16T15:04:59Z</time>
      </trkpt>
      <trkpt lat="44.04332" lon="0.21072">
        <ele>-15</ele>
        <time>2015-11-16T15:05:07Z</time>
      </trkpt>
      <trkpt lat="44.04342" lon="0.21072">
        <ele>-15</ele>
        <time>2015-11-16T15:05:19Z</time>
      </trkpt>
      <trkpt lat="44.04351" lon="0.21069">
        <ele>-15</ele>
        <time>2015-11-16T15:05:34Z</time>
      </trkpt>
      <trkpt lat="44.0436" lon="0.21065">
        <ele>-15</ele>
        <time>2015-11-16T15:05:50Z</time>
      </trkpt>
      <trkpt lat="44.04369" lon="0.2106">
        <ele>-15</ele>
        <time>2015-11-16T15:06:03Z</time>
      </trkpt>
      <trkpt lat="44.04378" lon="0.21055">
        <ele>-19</ele>
        <time>2015-11-16T15:06:11Z</time>
      </trkpt>
      <trkpt lat="44.04385" lon="0.21048">
        <ele>-19</ele>
        <time>2015-11-16T15:06:21Z</time>
      </trkpt>
      <trkpt lat="44.04395" lon="0.21043">
        <ele>-19</ele>
        <time>2015-11-16T15:06:29Z</time>
      </trkpt>
      <trkpt lat="44.04404" lon="0.21038">
        <ele>-19</ele>
        <time>2015-11-16T15:06:37Z</time>
      </trkpt>
      <trkpt lat="44.04413" lon="0.21034">
        <ele>-19</ele>
        <time>2015-11-16T15:06:46Z</time>
      </trkpt>
      <trkpt lat="44.04422" lon="0.21028">
        <ele>-19</ele>
        <time>2015-11-16T15:06:54Z</time>
      </trkpt>
      <trkpt lat="44.0443" lon="0.21023">
        <ele>-19</ele>
        <time>2015-11-16T15:07:04Z</time>
      </trkpt>
      <trkpt lat="44.04438" lon="0.21016">
        <ele>-19</ele>
        <time>2015-11-16T15:07:15Z</time>
      </trkpt>
      <trkpt lat="44.04447" lon="0.21011">
        <ele>-19</ele>
        <time>2015-11-16T15:07:25Z</time>
      </trkpt>
      <trkpt lat="44.04455" lon="0.21005">
        <ele>-19</ele>
        <time>2015-11-16T15:07:33Z</time>
      </trkpt>
      <trkpt lat="44.04464" lon="0.21">
        <ele>-19</ele>
        <time>2015-11-16T15:07:42Z</time>
      </trkpt>
      <trkpt lat="44.04472" lon="0.20994">
        <ele>-19</ele>
        <time>2015-11-16T15:07:51Z</time>
      </trkpt>
      <trkpt lat="44.04482" lon="0.20989">
        <ele>-19</ele>
        <time>2015-11-16T15:08:00Z</time>
      </trkpt>
      <trkpt lat="44.0449" lon="0.20983">
        <ele>-19</ele>
        <time>2015-11-16T15:08:09Z</time>
      </trkpt>
      <trkpt lat="44.04495" lon="0.20972">
        <ele>-19</ele>
        <time>2015-11-16T15:08:22Z</time>
      </trkpt>
      <trkpt lat="44.04493" lon="0.2096">
        <ele>-19</ele>
        <time>2015-11-16T15:08:31Z</time>
      </trkpt>
      <trkpt lat="44.0449" lon="0.20947">
        <ele>-19</ele>
        <time>2015-11-16T15:08:40Z</time>
      </trkpt>
      <trkpt lat="44.04494" lon="0.20935">
        <ele>-19</ele>
        <time>2015-11-16T15:09:00Z</time>
      </trkpt>
      <trkpt lat="44.04499" lon="0.20924">
        <ele>-19</ele>
        <time>2015-11-16T15:09:09Z</time>
      </trkpt>
      <trkpt lat="44.04502" lon="0.20911">
        <ele>-19</ele>
        <time>2015-11-16T15:09:22Z</time>
      </trkpt>
    </trkseg>
  </trk>
</gpx>